PUA2539 MPTO-SUMU
Flight info
| Callsign | PUA2539 |
|---|---|
| Flight time | 6h 45m |
| Altitude | 31000 |
| Route | DABEL1A DABEL DCT TBG UL780 TORIL/N0477F330 UL780 GYV/N0473F350 UM659 URA UV1 TRU UL780 SORTA/N0465F370 UL780 ISPEL DCT PUMEN DCT ROLIM UT691 LAR UW16 CBA DCT GUA UL417 NIMBO |
| Aircraft | B738/M-SDE2E3FGHIRWXY/LB1 |
Departure
| Time | 2026-04-20 20:30 |
|---|---|
| Airport | Tocumen International Airport (MPTO) |
Arrival
| Time | 2026-04-21 03:15 |
|---|---|
| Airport | Carrasco General Cesáreo L. Berisso International Airport (SUMU) |
| Time | Latitude | Longitude | Altitude | Speed | Heading |
|---|---|---|---|---|---|
| 2026-04-20 20:04 | 9.06757 | -79.38488 | 45 ft | 0 kts | 328° |
| 2026-04-20 20:19 | 9.06756 | -79.38487 | 45 ft | 1 kts | 328° |
| 2026-04-20 20:20 | 9.06742 | -79.38478 | 43 ft | 3 kts | 322° |
| 2026-04-20 20:20 | 9.06727 | -79.38465 | 42 ft | 3 kts | 308° |
| 2026-04-20 20:20 | 9.06717 | -79.38448 | 42 ft | 3 kts | 276° |
| 2026-04-20 20:20 | 9.06718 | -79.38435 | 42 ft | 2 kts | 217° |
| 2026-04-20 20:21 | 9.06724 | -79.38431 | 41 ft | 1 kts | 210° |
| 2026-04-20 20:21 | 9.06725 | -79.38430 | 41 ft | 0 kts | 210° |
| 2026-04-20 20:23 | 9.06722 | -79.38432 | 41 ft | 2 kts | 210° |
| 2026-04-20 20:23 | 9.06695 | -79.38447 | 44 ft | 7 kts | 210° |
| 2026-04-20 20:23 | 9.06637 | -79.38482 | 44 ft | 12 kts | 210° |
| 2026-04-20 20:23 | 9.06557 | -79.38527 | 44 ft | 14 kts | 208° |
| 2026-04-20 20:24 | 9.06475 | -79.38574 | 43 ft | 13 kts | 209° |
| 2026-04-20 20:24 | 9.06400 | -79.38625 | 43 ft | 13 kts | 217° |
| 2026-04-20 20:24 | 9.06317 | -79.38647 | 42 ft | 12 kts | 178° |
| 2026-04-20 20:24 | 9.06231 | -79.38645 | 42 ft | 12 kts | 182° |
| 2026-04-20 20:25 | 9.06149 | -79.38664 | 42 ft | 12 kts | 204° |
| 2026-04-20 20:25 | 9.06072 | -79.38708 | 42 ft | 14 kts | 209° |
| 2026-04-20 20:25 | 9.06010 | -79.38743 | 40 ft | 16 kts | 209° |
| 2026-04-20 20:25 | 9.05901 | -79.38805 | 40 ft | 19 kts | 209° |
| 2026-04-20 20:26 | 9.05785 | -79.38871 | 40 ft | 19 kts | 209° |
| 2026-04-20 20:26 | 9.05672 | -79.38935 | 39 ft | 18 kts | 209° |
| 2026-04-20 20:26 | 9.05563 | -79.38996 | 38 ft | 18 kts | 208° |
| 2026-04-20 20:26 | 9.05457 | -79.39055 | 38 ft | 17 kts | 209° |
| 2026-04-20 20:27 | 9.05355 | -79.39113 | 37 ft | 16 kts | 210° |
| 2026-04-20 20:27 | 9.05258 | -79.39169 | 37 ft | 16 kts | 210° |
| 2026-04-20 20:27 | 9.05153 | -79.39229 | 37 ft | 18 kts | 209° |
| 2026-04-20 20:27 | 9.05044 | -79.39292 | 36 ft | 18 kts | 209° |
| 2026-04-20 20:28 | 9.04938 | -79.39352 | 36 ft | 17 kts | 210° |
| 2026-04-20 20:28 | 9.04838 | -79.39370 | 36 ft | 15 kts | 143° |
| 2026-04-20 20:28 | 9.04785 | -79.39284 | 36 ft | 9 kts | 119° |
| 2026-04-20 20:28 | 9.04810 | -79.39235 | 36 ft | 9 kts | 31° |
| 2026-04-20 20:29 | 9.04907 | -79.39180 | 37 ft | 39 kts | 29° |
| 2026-04-20 20:29 | 9.05364 | -79.38919 | 38 ft | 110 kts | 29° |
| 2026-04-20 20:29 | 9.06209 | -79.38438 | 81 ft | 164 kts | 29° |
| 2026-04-20 20:29 | 9.07240 | -79.37860 | 727 ft | 176 kts | 31° |
| 2026-04-20 20:30 | 9.08326 | -79.37244 | 1499 ft | 178 kts | 27° |
| 2026-04-20 20:30 | 9.09425 | -79.36628 | 2141 ft | 189 kts | 28° |
| 2026-04-20 20:30 | 9.10637 | -79.35948 | 2402 ft | 207 kts | 28° |
| 2026-04-20 20:30 | 9.11958 | -79.35203 | 2592 ft | 226 kts | 28° |
| 2026-04-20 20:31 | 9.13371 | -79.34399 | 2913 ft | 239 kts | 28° |
| 2026-04-20 20:31 | 9.14859 | -79.33547 | 3358 ft | 253 kts | 28° |
| 2026-04-20 20:31 | 9.16417 | -79.32654 | 3930 ft | 262 kts | 30° |
| 2026-04-20 20:31 | 9.18032 | -79.31726 | 4602 ft | 268 kts | 29° |
| 2026-04-20 20:32 | 9.19668 | -79.30809 | 5341 ft | 269 kts | 28° |
| 2026-04-20 20:32 | 9.21354 | -79.29988 | 6068 ft | 272 kts | 15° |
| 2026-04-20 20:32 | 9.23234 | -79.30041 | 6790 ft | 274 kts | 342° |
| 2026-04-20 20:32 | 9.24893 | -79.31018 | 7424 ft | 283 kts | 317° |
| 2026-04-20 20:33 | 9.26022 | -79.32663 | 8044 ft | 289 kts | 293° |
| 2026-04-20 20:33 | 9.26491 | -79.34657 | 8642 ft | 297 kts | 276° |
| 2026-04-20 20:33 | 9.26600 | -79.36772 | 9232 ft | 303 kts | 272° |
| 2026-04-20 20:33 | 9.26630 | -79.38901 | 9995 ft | 302 kts | 271° |
| 2026-04-20 20:34 | 9.26660 | -79.41028 | 10635 ft | 304 kts | 272° |
| 2026-04-20 20:34 | 9.26708 | -79.43186 | 11168 ft | 308 kts | 272° |
| 2026-04-20 20:34 | 9.26774 | -79.45364 | 11771 ft | 311 kts | 272° |
| 2026-04-20 20:34 | 9.26851 | -79.47574 | 12335 ft | 315 kts | 273° |
| 2026-04-20 20:35 | 9.26935 | -79.49822 | 12817 ft | 322 kts | 272° |
| 2026-04-20 20:35 | 9.26979 | -79.52102 | 13357 ft | 326 kts | 265° |
| 2026-04-20 20:35 | 9.26345 | -79.54283 | 13804 ft | 330 kts | 237° |
| 2026-04-20 20:35 | 9.24843 | -79.56021 | 14478 ft | 323 kts | 215° |
| 2026-04-20 20:36 | 9.22909 | -79.57150 | 15050 ft | 323 kts | 205° |
| 2026-04-20 20:36 | 9.20875 | -79.58170 | 15490 ft | 329 kts | 204° |
| 2026-04-20 20:36 | 9.18806 | -79.59182 | 15969 ft | 332 kts | 205° |
| 2026-04-20 20:36 | 9.16714 | -79.60210 | 16446 ft | 336 kts | 205° |
| 2026-04-20 20:37 | 9.14639 | -79.61238 | 16956 ft | 339 kts | 205° |
| 2026-04-20 20:37 | 9.12487 | -79.62314 | 17440 ft | 343 kts | 204° |
| 2026-04-20 20:37 | 9.10380 | -79.63374 | 17997 ft | 343 kts | 205° |
| 2026-04-20 20:37 | 9.08237 | -79.64455 | 18448 ft | 346 kts | 204° |
| 2026-04-20 20:38 | 9.06067 | -79.65549 | 18809 ft | 350 kts | 204° |
| 2026-04-20 20:38 | 9.03877 | -79.66654 | 19237 ft | 352 kts | 204° |
| 2026-04-20 20:38 | 9.01683 | -79.67760 | 19668 ft | 354 kts | 205° |
| 2026-04-20 20:38 | 8.99429 | -79.68891 | 19766 ft | 369 kts | 205° |
| 2026-04-20 20:39 | 8.97092 | -79.70063 | 19870 ft | 382 kts | 205° |
| 2026-04-20 20:39 | 8.94707 | -79.71237 | 19978 ft | 393 kts | 200° |
| 2026-04-20 20:39 | 8.91975 | -79.71807 | 20018 ft | 401 kts | 176° |
| 2026-04-20 20:39 | 8.89248 | -79.71207 | 20103 ft | 407 kts | 154° |
| 2026-04-20 20:40 | 8.86844 | -79.69678 | 20192 ft | 413 kts | 139° |
| 2026-04-20 20:40 | 8.84854 | -79.67553 | 20229 ft | 421 kts | 123° |
| 2026-04-20 20:40 | 8.83368 | -79.64974 | 20306 ft | 428 kts | 116° |
| 2026-04-20 20:40 | 8.82001 | -79.62273 | 20367 ft | 436 kts | 116° |
| 2026-04-20 20:41 | 8.80407 | -79.59650 | 20472 ft | 443 kts | 130° |
| 2026-04-20 20:41 | 8.77995 | -79.57708 | 20745 ft | 446 kts | 151° |
| 2026-04-20 20:41 | 8.75106 | -79.56568 | 21105 ft | 448 kts | 165° |
| 2026-04-20 20:41 | 8.71985 | -79.56249 | 21386 ft | 453 kts | 179° |
| 2026-04-20 20:42 | 8.68824 | -79.56337 | 21672 ft | 456 kts | 180° |
| 2026-04-20 20:42 | 8.65643 | -79.56468 | 21911 ft | 459 kts | 181° |
| 2026-04-20 20:42 | 8.62445 | -79.56610 | 22150 ft | 460 kts | 181° |
| 2026-04-20 20:42 | 8.59242 | -79.56745 | 22382 ft | 461 kts | 180° |
| 2026-04-20 20:43 | 8.56068 | -79.56865 | 22602 ft | 463 kts | 180° |
| 2026-04-20 20:43 | 8.52845 | -79.56976 | 22835 ft | 464 kts | 180° |
| 2026-04-20 20:43 | 8.49615 | -79.57078 | 23046 ft | 465 kts | 180° |
| 2026-04-20 20:43 | 8.46371 | -79.57177 | 23246 ft | 467 kts | 180° |
| 2026-04-20 20:44 | 8.43123 | -79.57273 | 23442 ft | 468 kts | 180° |
| 2026-04-20 20:44 | 8.39859 | -79.57369 | 23622 ft | 469 kts | 180° |
| 2026-04-20 20:44 | 8.36592 | -79.57465 | 23801 ft | 470 kts | 180° |
| 2026-04-20 20:44 | 8.33317 | -79.57563 | 23971 ft | 471 kts | 180° |
| 2026-04-20 20:45 | 8.30038 | -79.57660 | 24139 ft | 472 kts | 180° |
| 2026-04-20 20:45 | 8.26748 | -79.57758 | 24302 ft | 473 kts | 180° |
| 2026-04-20 20:45 | 8.23453 | -79.57857 | 24466 ft | 474 kts | 180° |
| 2026-04-20 20:45 | 8.20147 | -79.57955 | 24634 ft | 475 kts | 180° |
| 2026-04-20 20:46 | 8.16834 | -79.58055 | 24802 ft | 476 kts | 180° |
| 2026-04-20 20:46 | 8.13521 | -79.58154 | 24965 ft | 477 kts | 180° |
| 2026-04-20 20:46 | 8.10201 | -79.58253 | 25117 ft | 478 kts | 180° |
| 2026-04-20 20:46 | 8.06872 | -79.58352 | 25266 ft | 479 kts | 180° |
| 2026-04-20 20:47 | 8.03541 | -79.58452 | 25417 ft | 480 kts | 180° |
| 2026-04-20 20:47 | 8.00200 | -79.58551 | 25563 ft | 481 kts | 180° |
| 2026-04-20 20:47 | 7.96853 | -79.58651 | 25702 ft | 482 kts | 180° |
| 2026-04-20 20:47 | 7.93498 | -79.58751 | 25843 ft | 483 kts | 180° |
| 2026-04-20 20:48 | 7.90140 | -79.58852 | 25992 ft | 484 kts | 180° |
| 2026-04-20 20:48 | 7.86773 | -79.58952 | 26135 ft | 484 kts | 180° |
| 2026-04-20 20:48 | 7.83399 | -79.59053 | 26276 ft | 485 kts | 180° |
| 2026-04-20 20:48 | 7.80025 | -79.59153 | 26424 ft | 485 kts | 180° |
| 2026-04-20 20:49 | 7.76649 | -79.59254 | 26576 ft | 486 kts | 181° |
| 2026-04-20 20:49 | 7.73266 | -79.59355 | 26693 ft | 487 kts | 181° |
| 2026-04-20 20:49 | 7.69871 | -79.59456 | 26819 ft | 488 kts | 180° |
| 2026-04-20 20:49 | 7.66475 | -79.59557 | 26946 ft | 489 kts | 181° |
| 2026-04-20 20:50 | 7.63078 | -79.59658 | 27133 ft | 488 kts | 181° |
| 2026-04-20 20:50 | 7.59686 | -79.59760 | 27352 ft | 487 kts | 180° |
| 2026-04-20 20:50 | 7.56304 | -79.59861 | 27568 ft | 486 kts | 181° |
| 2026-04-20 20:50 | 7.52930 | -79.59961 | 27753 ft | 485 kts | 180° |
| 2026-04-20 20:51 | 7.49558 | -79.60061 | 27944 ft | 485 kts | 181° |
| 2026-04-20 20:51 | 7.46190 | -79.60162 | 28169 ft | 484 kts | 181° |
| 2026-04-20 20:51 | 7.42846 | -79.60261 | 28614 ft | 477 kts | 181° |
| 2026-04-20 20:51 | 7.39542 | -79.60360 | 29021 ft | 473 kts | 181° |
| 2026-04-20 20:52 | 7.36257 | -79.60457 | 29197 ft | 473 kts | 181° |
| 2026-04-20 20:52 | 7.32957 | -79.60556 | 29284 ft | 476 kts | 181° |
| 2026-04-20 20:52 | 7.29657 | -79.60654 | 29543 ft | 474 kts | 181° |
| 2026-04-20 20:52 | 7.26369 | -79.60751 | 29846 ft | 472 kts | 181° |
| 2026-04-20 20:53 | 7.23084 | -79.60844 | 29970 ft | 473 kts | 181° |
| 2026-04-20 20:53 | 7.19796 | -79.60936 | 30217 ft | 471 kts | 181° |
| 2026-04-20 20:53 | 7.16530 | -79.61026 | 30467 ft | 469 kts | 181° |
| 2026-04-20 20:53 | 7.13261 | -79.61117 | 30575 ft | 471 kts | 181° |
| 2026-04-20 20:54 | 7.09986 | -79.61208 | 30757 ft | 470 kts | 181° |
| 2026-04-20 20:54 | 7.06738 | -79.61299 | 30867 ft | 465 kts | 181° |
| 2026-04-20 20:54 | 7.00245 | -79.61480 | 30885 ft | 469 kts | 181° |
| 2026-04-20 20:55 | 6.93707 | -79.61663 | 30887 ft | 472 kts | 181° |
| 2026-04-20 20:55 | 6.87121 | -79.61848 | 30969 ft | 474 kts | 181° |
| 2026-04-20 20:56 | 6.83869 | -79.61939 | 31237 ft | 471 kts | 181° |
| 2026-04-20 20:56 | 6.80599 | -79.62030 | 31476 ft | 469 kts | 181° |
| 2026-04-20 20:56 | 6.77348 | -79.62121 | 31789 ft | 466 kts | 182° |
| 2026-04-20 20:56 | 6.74116 | -79.62212 | 32017 ft | 465 kts | 182° |
| 2026-04-20 20:57 | 6.70874 | -79.62302 | 32138 ft | 466 kts | 182° |
| 2026-04-20 20:57 | 6.67597 | -79.62394 | 32415 ft | 464 kts | 182° |
| 2026-04-20 20:57 | 6.64381 | -79.62484 | 32660 ft | 462 kts | 182° |
| 2026-04-20 20:57 | 6.61211 | -79.62573 | 32832 ft | 461 kts | 182° |
| 2026-04-20 20:58 | 6.54761 | -79.62753 | 32876 ft | 465 kts | 182° |
| 2026-04-20 20:58 | 6.48293 | -79.62934 | 32872 ft | 464 kts | 182° |
| 2026-04-20 20:59 | 6.41841 | -79.63114 | 32875 ft | 464 kts | 182° |
| 2026-04-20 20:59 | 6.35396 | -79.63294 | 32880 ft | 463 kts | 182° |
| 2026-04-20 21:00 | 6.28958 | -79.63474 | 32875 ft | 462 kts | 182° |
| 2026-04-20 21:00 | 6.22527 | -79.63653 | 32883 ft | 462 kts | 182° |
| 2026-04-20 21:01 | 6.16108 | -79.63833 | 32875 ft | 461 kts | 182° |
| 2026-04-20 21:01 | 6.09689 | -79.64012 | 32878 ft | 461 kts | 182° |
| 2026-04-20 21:02 | 6.03266 | -79.64191 | 32879 ft | 461 kts | 182° |
| 2026-04-20 21:02 | 5.96857 | -79.64370 | 32882 ft | 461 kts | 182° |
| 2026-04-20 21:03 | 5.90482 | -79.64548 | 32869 ft | 461 kts | 182° |
| 2026-04-20 21:03 | 5.84071 | -79.64726 | 32880 ft | 461 kts | 182° |
| 2026-04-20 21:04 | 5.77655 | -79.64905 | 32876 ft | 461 kts | 182° |
| 2026-04-20 21:04 | 5.71246 | -79.65084 | 32877 ft | 461 kts | 182° |
| 2026-04-20 21:05 | 5.64831 | -79.65263 | 32874 ft | 461 kts | 182° |
| 2026-04-20 21:05 | 5.58419 | -79.65441 | 32883 ft | 461 kts | 182° |
| 2026-04-20 21:06 | 5.52001 | -79.65620 | 32878 ft | 461 kts | 182° |
| 2026-04-20 21:06 | 5.45585 | -79.65799 | 32872 ft | 461 kts | 182° |
| 2026-04-20 21:07 | 5.39175 | -79.65977 | 32879 ft | 461 kts | 182° |
| 2026-04-20 21:07 | 5.32767 | -79.66156 | 32879 ft | 461 kts | 182° |
| 2026-04-20 21:08 | 5.26359 | -79.66334 | 32868 ft | 461 kts | 182° |
| 2026-04-20 21:08 | 5.19993 | -79.66511 | 32875 ft | 461 kts | 181° |
| 2026-04-20 21:09 | 5.13584 | -79.66712 | 32870 ft | 461 kts | 182° |
| 2026-04-20 21:09 | 5.07166 | -79.67002 | 32877 ft | 461 kts | 182° |
| 2026-04-20 21:10 | 5.00765 | -79.67306 | 32869 ft | 461 kts | 182° |
| 2026-04-20 21:10 | 4.95447 | -79.67552 | 32871 ft | 461 kts | 182° |
| 2026-04-20 21:11 | 4.88999 | -79.67843 | 32876 ft | 460 kts | 182° |
| 2026-04-20 21:11 | 4.82644 | -79.68127 | 32880 ft | 460 kts | 182° |
| 2026-04-20 21:12 | 4.76259 | -79.68412 | 32871 ft | 459 kts | 182° |
| 2026-04-20 21:12 | 4.69890 | -79.68696 | 32871 ft | 457 kts | 182° |
| 2026-04-20 21:13 | 4.63532 | -79.68980 | 32869 ft | 456 kts | 182° |
| 2026-04-20 21:13 | 4.57194 | -79.69263 | 32874 ft | 455 kts | 182° |
| 2026-04-20 21:14 | 4.50872 | -79.69545 | 32875 ft | 454 kts | 182° |
| 2026-04-20 21:14 | 4.44564 | -79.69826 | 32882 ft | 454 kts | 182° |
| 2026-04-20 21:15 | 4.38259 | -79.70108 | 32881 ft | 453 kts | 182° |
| 2026-04-20 21:15 | 4.31958 | -79.70389 | 32871 ft | 453 kts | 182° |
| 2026-04-20 21:16 | 4.25654 | -79.70670 | 32874 ft | 453 kts | 182° |
| 2026-04-20 21:16 | 4.19353 | -79.70951 | 32880 ft | 454 kts | 182° |
| 2026-04-20 21:17 | 4.13043 | -79.71232 | 32874 ft | 454 kts | 182° |
| 2026-04-20 21:17 | 4.06723 | -79.71514 | 32869 ft | 455 kts | 182° |
| 2026-04-20 21:18 | 4.00399 | -79.71796 | 32875 ft | 455 kts | 182° |
| 2026-04-20 21:18 | 3.94080 | -79.72078 | 32881 ft | 456 kts | 182° |
| 2026-04-20 21:19 | 3.87736 | -79.72360 | 32876 ft | 456 kts | 182° |
| 2026-04-20 21:20 | 3.78249 | -79.72783 | 32877 ft | 457 kts | 182° |
| 2026-04-20 21:20 | 3.71897 | -79.73066 | 32869 ft | 457 kts | 182° |
| 2026-04-20 21:21 | 3.65536 | -79.73349 | 32881 ft | 458 kts | 182° |
| 2026-04-20 21:21 | 3.59171 | -79.73633 | 32875 ft | 458 kts | 182° |
| 2026-04-20 21:22 | 3.52801 | -79.73916 | 32875 ft | 458 kts | 182° |
| 2026-04-20 21:22 | 3.46429 | -79.74200 | 32871 ft | 458 kts | 182° |
| 2026-04-20 21:23 | 3.40049 | -79.74484 | 32878 ft | 459 kts | 182° |
| 2026-04-20 21:23 | 3.33676 | -79.74768 | 32876 ft | 459 kts | 182° |
| 2026-04-20 21:24 | 3.27296 | -79.75052 | 32876 ft | 459 kts | 182° |
| 2026-04-20 21:24 | 3.20913 | -79.75336 | 32879 ft | 458 kts | 182° |
| 2026-04-20 21:25 | 3.14539 | -79.75620 | 32876 ft | 458 kts | 182° |
| 2026-04-20 21:25 | 3.08170 | -79.75903 | 32876 ft | 458 kts | 182° |
| 2026-04-20 21:26 | 3.01805 | -79.76186 | 32867 ft | 458 kts | 182° |
| 2026-04-20 21:26 | 2.95444 | -79.76469 | 32878 ft | 458 kts | 182° |
| 2026-04-20 21:27 | 2.89080 | -79.76752 | 32871 ft | 458 kts | 182° |
| 2026-04-20 21:27 | 2.82711 | -79.77035 | 32877 ft | 458 kts | 182° |
| 2026-04-20 21:28 | 2.76333 | -79.77319 | 32873 ft | 458 kts | 182° |
| 2026-04-20 21:28 | 2.69962 | -79.77602 | 32876 ft | 459 kts | 182° |
| 2026-04-20 21:29 | 2.63589 | -79.77885 | 32879 ft | 459 kts | 182° |
| 2026-04-20 21:29 | 2.57207 | -79.78169 | 32874 ft | 459 kts | 182° |
| 2026-04-20 21:30 | 2.50818 | -79.78453 | 32871 ft | 459 kts | 182° |
| 2026-04-20 21:30 | 2.44465 | -79.78735 | 32871 ft | 460 kts | 182° |
| 2026-04-20 21:31 | 2.38034 | -79.79021 | 32874 ft | 460 kts | 182° |
| 2026-04-20 21:31 | 2.31678 | -79.79303 | 32870 ft | 460 kts | 182° |
| 2026-04-20 21:32 | 2.25283 | -79.79587 | 32871 ft | 460 kts | 182° |
| 2026-04-20 21:32 | 2.18885 | -79.79872 | 32877 ft | 460 kts | 182° |
| 2026-04-20 21:33 | 2.12488 | -79.80156 | 32874 ft | 460 kts | 182° |
| 2026-04-20 21:33 | 2.06089 | -79.80440 | 32874 ft | 460 kts | 182° |
| 2026-04-20 21:34 | 1.99699 | -79.80724 | 32880 ft | 460 kts | 182° |
| 2026-04-20 21:34 | 1.93305 | -79.81008 | 32871 ft | 460 kts | 182° |
| 2026-04-20 21:35 | 1.86911 | -79.81292 | 32872 ft | 460 kts | 182° |
| 2026-04-20 21:35 | 1.80516 | -79.81576 | 32874 ft | 460 kts | 182° |
| 2026-04-20 21:36 | 1.74124 | -79.81860 | 32870 ft | 460 kts | 182° |
| 2026-04-20 21:36 | 1.67722 | -79.82144 | 32875 ft | 460 kts | 182° |
| 2026-04-20 21:37 | 1.61320 | -79.82428 | 32881 ft | 461 kts | 182° |
| 2026-04-20 21:37 | 1.54912 | -79.82713 | 32874 ft | 461 kts | 182° |
| 2026-04-20 21:38 | 1.48503 | -79.82998 | 32871 ft | 461 kts | 182° |
| 2026-04-20 21:38 | 1.42084 | -79.83283 | 32885 ft | 462 kts | 182° |
| 2026-04-20 21:39 | 1.35640 | -79.83438 | 32873 ft | 463 kts | 180° |
| 2026-04-20 21:39 | 1.29184 | -79.83464 | 32874 ft | 465 kts | 179° |
| 2026-04-20 21:40 | 1.22710 | -79.83494 | 32875 ft | 466 kts | 180° |
| 2026-04-20 21:40 | 1.16228 | -79.83545 | 32882 ft | 466 kts | 180° |
| 2026-04-20 21:41 | 1.09727 | -79.83607 | 32877 ft | 467 kts | 181° |
| 2026-04-20 21:41 | 1.03219 | -79.83672 | 32890 ft | 468 kts | 181° |
| 2026-04-20 21:42 | 0.96716 | -79.83737 | 32875 ft | 468 kts | 181° |
| 2026-04-20 21:42 | 0.90201 | -79.83800 | 32884 ft | 468 kts | 181° |
| 2026-04-20 21:43 | 0.83689 | -79.83864 | 32877 ft | 468 kts | 181° |
| 2026-04-20 21:43 | 0.77178 | -79.83927 | 32880 ft | 467 kts | 181° |
| 2026-04-20 21:44 | 0.70683 | -79.83990 | 32893 ft | 466 kts | 181° |
| 2026-04-20 21:44 | 0.64197 | -79.84053 | 32890 ft | 465 kts | 181° |
| 2026-04-20 21:45 | 0.57722 | -79.84117 | 32893 ft | 465 kts | 181° |
| 2026-04-20 21:45 | 0.51254 | -79.84181 | 32899 ft | 464 kts | 182° |
| 2026-04-20 21:46 | 0.44807 | -79.84243 | 32897 ft | 463 kts | 181° |
| 2026-04-20 21:46 | 0.38356 | -79.84305 | 32902 ft | 463 kts | 182° |
| 2026-04-20 21:47 | 0.31918 | -79.84368 | 32905 ft | 462 kts | 181° |
| 2026-04-20 21:47 | 0.25488 | -79.84430 | 32911 ft | 462 kts | 181° |
| 2026-04-20 21:48 | 0.19070 | -79.84492 | 32903 ft | 461 kts | 181° |
| 2026-04-20 21:48 | 0.12709 | -79.84554 | 32917 ft | 460 kts | 181° |
| 2026-04-20 21:49 | 0.06270 | -79.84617 | 32915 ft | 459 kts | 181° |
| 2026-04-20 21:49 | -0.00076 | -79.84678 | 32915 ft | 459 kts | 181° |
| 2026-04-20 21:50 | -0.06468 | -79.84740 | 32917 ft | 459 kts | 180° |
| 2026-04-20 21:50 | -0.12862 | -79.84803 | 32914 ft | 460 kts | 180° |
| 2026-04-20 21:51 | -0.19263 | -79.84865 | 32917 ft | 460 kts | 180° |
| 2026-04-20 21:51 | -0.25675 | -79.84927 | 32919 ft | 461 kts | 180° |
| 2026-04-20 21:52 | -0.32095 | -79.84990 | 32928 ft | 462 kts | 180° |
| 2026-04-20 21:52 | -0.38495 | -79.85052 | 32923 ft | 462 kts | 180° |
| 2026-04-20 21:53 | -0.44932 | -79.85114 | 32920 ft | 463 kts | 180° |
| 2026-04-20 21:53 | -0.51378 | -79.85177 | 32931 ft | 463 kts | 180° |
| 2026-04-20 21:54 | -0.56745 | -79.85229 | 32931 ft | 463 kts | 180° |
| 2026-04-20 21:54 | -0.63188 | -79.85292 | 32934 ft | 463 kts | 180° |
| 2026-04-20 21:55 | -0.69642 | -79.85355 | 32932 ft | 463 kts | 180° |
| 2026-04-20 21:55 | -0.76082 | -79.85417 | 32918 ft | 463 kts | 180° |
| 2026-04-20 21:56 | -0.82531 | -79.85480 | 32922 ft | 463 kts | 180° |
| 2026-04-20 21:56 | -0.88977 | -79.85543 | 32923 ft | 464 kts | 180° |
| 2026-04-20 21:57 | -0.95434 | -79.85606 | 32917 ft | 464 kts | 180° |
| 2026-04-20 21:57 | -1.01894 | -79.85668 | 32911 ft | 465 kts | 180° |
| 2026-04-20 21:58 | -1.08361 | -79.85731 | 32907 ft | 465 kts | 180° |
| 2026-04-20 21:58 | -1.14842 | -79.85794 | 32899 ft | 466 kts | 180° |
| 2026-04-20 21:59 | -1.21325 | -79.85857 | 32902 ft | 466 kts | 180° |
| 2026-04-20 21:59 | -1.27818 | -79.85921 | 32932 ft | 469 kts | 180° |
| 2026-04-20 21:59 | -1.31077 | -79.85952 | 33129 ft | 468 kts | 180° |
| 2026-04-20 22:00 | -1.34327 | -79.85984 | 33403 ft | 466 kts | 180° |
| 2026-04-20 22:00 | -1.37562 | -79.86016 | 33724 ft | 463 kts | 179° |
| 2026-04-20 22:00 | -1.40779 | -79.86047 | 34025 ft | 460 kts | 179° |
| 2026-04-20 22:00 | -1.43979 | -79.86079 | 34235 ft | 460 kts | 179° |
| 2026-04-20 22:01 | -1.47180 | -79.86109 | 34375 ft | 460 kts | 179° |
| 2026-04-20 22:01 | -1.50342 | -79.86138 | 34505 ft | 461 kts | 179° |
| 2026-04-20 22:01 | -1.53550 | -79.86167 | 34659 ft | 461 kts | 179° |
| 2026-04-20 22:01 | -1.56764 | -79.86196 | 34836 ft | 461 kts | 179° |
| 2026-04-20 22:02 | -1.59974 | -79.86224 | 34863 ft | 464 kts | 179° |
| 2026-04-20 22:02 | -1.66418 | -79.86282 | 34864 ft | 461 kts | 179° |
| 2026-04-20 22:03 | -1.72819 | -79.86340 | 34866 ft | 458 kts | 179° |
| 2026-04-20 22:03 | -1.79174 | -79.86397 | 34869 ft | 455 kts | 179° |
| 2026-04-20 22:04 | -1.85499 | -79.86454 | 34866 ft | 454 kts | 179° |
| 2026-04-20 22:04 | -1.91812 | -79.86511 | 34866 ft | 454 kts | 179° |
| 2026-04-20 22:05 | -1.98137 | -79.86568 | 34859 ft | 455 kts | 179° |
| 2026-04-20 22:05 | -2.04492 | -79.86625 | 34863 ft | 458 kts | 179° |
| 2026-04-20 22:06 | -2.10880 | -79.86686 | 34867 ft | 460 kts | 180° |
| 2026-04-20 22:06 | -2.17229 | -79.87696 | 34860 ft | 465 kts | 193° |
| 2026-04-20 22:07 | -2.23507 | -79.89378 | 34855 ft | 468 kts | 193° |
| 2026-04-20 22:07 | -2.29808 | -79.91056 | 34829 ft | 470 kts | 193° |
| 2026-04-20 22:08 | -2.36137 | -79.92697 | 34837 ft | 470 kts | 192° |
| 2026-04-20 22:08 | -2.42362 | -79.94295 | 34845 ft | 471 kts | 192° |
| 2026-04-20 22:09 | -2.48707 | -79.95923 | 34857 ft | 471 kts | 192° |
| 2026-04-20 22:09 | -2.55053 | -79.97553 | 34859 ft | 470 kts | 192° |
| 2026-04-20 22:10 | -2.61379 | -79.99180 | 34874 ft | 469 kts | 192° |
| 2026-04-20 22:10 | -2.67615 | -80.00783 | 34866 ft | 468 kts | 193° |
| 2026-04-20 22:11 | -2.73928 | -80.02407 | 34871 ft | 468 kts | 193° |
| 2026-04-20 22:11 | -2.80242 | -80.04028 | 34868 ft | 468 kts | 193° |
| 2026-04-20 22:12 | -2.86560 | -80.05642 | 34871 ft | 469 kts | 193° |
| 2026-04-20 22:12 | -2.92846 | -80.07247 | 34873 ft | 469 kts | 193° |
| 2026-04-20 22:13 | -2.99179 | -80.08866 | 34869 ft | 470 kts | 193° |
| 2026-04-20 22:13 | -3.05519 | -80.10488 | 34874 ft | 471 kts | 193° |
| 2026-04-20 22:14 | -3.11864 | -80.12112 | 34874 ft | 471 kts | 193° |
| 2026-04-20 22:14 | -3.18219 | -80.13738 | 34883 ft | 471 kts | 193° |
| 2026-04-20 22:15 | -3.24577 | -80.15365 | 34878 ft | 472 kts | 193° |
| 2026-04-20 22:15 | -3.30934 | -80.16991 | 34884 ft | 472 kts | 193° |
| 2026-04-20 22:16 | -3.37296 | -80.18621 | 34890 ft | 472 kts | 193° |
| 2026-04-20 22:16 | -3.43662 | -80.20251 | 34889 ft | 472 kts | 193° |
| 2026-04-20 22:17 | -3.50032 | -80.21881 | 34890 ft | 472 kts | 193° |
| 2026-04-20 22:17 | -3.56420 | -80.23408 | 34885 ft | 472 kts | 192° |
| 2026-04-20 22:18 | -3.62814 | -80.24858 | 34889 ft | 471 kts | 192° |
| 2026-04-20 22:18 | -3.69205 | -80.26319 | 34893 ft | 471 kts | 192° |
| 2026-04-20 22:19 | -3.75578 | -80.27791 | 34899 ft | 470 kts | 192° |
| 2026-04-20 22:19 | -3.81947 | -80.29265 | 34908 ft | 470 kts | 192° |
| 2026-04-20 22:20 | -3.88310 | -80.30740 | 34919 ft | 469 kts | 192° |
| 2026-04-20 22:20 | -3.94675 | -80.32214 | 34900 ft | 469 kts | 192° |
| 2026-04-20 22:21 | -4.00989 | -80.33676 | 34902 ft | 469 kts | 192° |
| 2026-04-20 22:21 | -4.07304 | -80.35139 | 34907 ft | 469 kts | 192° |
| 2026-04-20 22:22 | -4.13660 | -80.36611 | 34905 ft | 469 kts | 192° |
| 2026-04-20 22:22 | -4.20020 | -80.38085 | 34904 ft | 469 kts | 192° |
| 2026-04-20 22:23 | -4.26385 | -80.39561 | 34893 ft | 469 kts | 192° |
| 2026-04-20 22:23 | -4.32742 | -80.41039 | 34894 ft | 469 kts | 192° |
| 2026-04-20 22:24 | -4.39111 | -80.42522 | 34885 ft | 470 kts | 192° |
| 2026-04-20 22:24 | -4.45477 | -80.44003 | 34883 ft | 470 kts | 192° |
| 2026-04-20 22:25 | -4.51845 | -80.45485 | 34873 ft | 470 kts | 191° |
| 2026-04-20 22:25 | -4.58218 | -80.46969 | 34879 ft | 471 kts | 191° |
| 2026-04-20 22:26 | -4.64604 | -80.48456 | 34880 ft | 472 kts | 191° |
| 2026-04-20 22:26 | -4.71018 | -80.49949 | 34872 ft | 473 kts | 191° |
| 2026-04-20 22:27 | -4.80611 | -80.52183 | 34871 ft | 474 kts | 191° |
| 2026-04-20 22:27 | -4.87046 | -80.53683 | 34871 ft | 475 kts | 191° |
| 2026-04-20 22:28 | -4.93494 | -80.55184 | 34861 ft | 476 kts | 191° |
| 2026-04-20 22:28 | -4.99945 | -80.56689 | 34871 ft | 476 kts | 192° |
| 2026-04-20 22:29 | -5.06396 | -80.58193 | 34859 ft | 476 kts | 192° |
| 2026-04-20 22:29 | -5.12845 | -80.59697 | 34858 ft | 476 kts | 191° |
| 2026-04-20 22:30 | -5.19343 | -80.60787 | 34859 ft | 472 kts | 175° |
| 2026-04-20 22:30 | -5.25647 | -80.59315 | 34850 ft | 466 kts | 151° |
| 2026-04-20 22:31 | -5.31352 | -80.56262 | 34858 ft | 464 kts | 150° |
| 2026-04-20 22:31 | -5.37044 | -80.53174 | 34859 ft | 465 kts | 151° |
| 2026-04-20 22:32 | -5.42751 | -80.50130 | 34867 ft | 465 kts | 152° |
| 2026-04-20 22:32 | -5.48485 | -80.47100 | 34876 ft | 465 kts | 152° |
| 2026-04-20 22:33 | -5.54213 | -80.44080 | 34882 ft | 466 kts | 151° |
| 2026-04-20 22:33 | -5.59913 | -80.41071 | 34885 ft | 466 kts | 152° |
| 2026-04-20 22:34 | -5.65692 | -80.38020 | 34890 ft | 466 kts | 150° |
| 2026-04-20 22:34 | -5.71397 | -80.35003 | 34882 ft | 466 kts | 151° |
| 2026-04-20 22:35 | -5.77176 | -80.31945 | 34885 ft | 466 kts | 151° |
| 2026-04-20 22:35 | -5.82882 | -80.28933 | 34886 ft | 467 kts | 151° |
| 2026-04-20 22:36 | -5.88623 | -80.25897 | 34890 ft | 467 kts | 151° |
| 2026-04-20 22:36 | -5.94374 | -80.22863 | 34888 ft | 466 kts | 150° |
| 2026-04-20 22:37 | -6.00115 | -80.19828 | 34881 ft | 466 kts | 150° |
| 2026-04-20 22:37 | -6.05856 | -80.16784 | 34889 ft | 466 kts | 150° |
| 2026-04-20 22:38 | -6.11598 | -80.13742 | 34895 ft | 466 kts | 150° |
| 2026-04-20 22:38 | -6.17351 | -80.10717 | 34886 ft | 467 kts | 149° |
| 2026-04-20 22:39 | -6.23099 | -80.07667 | 34890 ft | 467 kts | 149° |
| 2026-04-20 22:39 | -6.28845 | -80.04620 | 34894 ft | 467 kts | 149° |
| 2026-04-20 22:40 | -6.34594 | -80.01575 | 34893 ft | 467 kts | 149° |
| 2026-04-20 22:40 | -6.40344 | -79.98529 | 34888 ft | 467 kts | 149° |
| 2026-04-20 22:41 | -6.46098 | -79.95480 | 34901 ft | 467 kts | 149° |
| 2026-04-20 22:41 | -6.50881 | -79.92945 | 34887 ft | 468 kts | 149° |
| 2026-04-20 22:42 | -6.57578 | -79.89394 | 34880 ft | 468 kts | 149° |
| 2026-04-20 22:42 | -6.63349 | -79.86332 | 34894 ft | 469 kts | 149° |
| 2026-04-20 22:43 | -6.68180 | -79.83769 | 34885 ft | 469 kts | 149° |
| 2026-04-20 22:43 | -6.73963 | -79.80714 | 34881 ft | 469 kts | 150° |
| 2026-04-20 22:44 | -6.79746 | -79.77739 | 34873 ft | 470 kts | 150° |
| 2026-04-20 22:44 | -6.85580 | -79.74758 | 34895 ft | 470 kts | 150° |
| 2026-04-20 22:45 | -6.91457 | -79.71748 | 34885 ft | 471 kts | 150° |
| 2026-04-20 22:45 | -6.97297 | -79.68741 | 34902 ft | 472 kts | 150° |
| 2026-04-20 22:46 | -7.03125 | -79.65742 | 34887 ft | 472 kts | 150° |
| 2026-04-20 22:46 | -7.08980 | -79.62732 | 34896 ft | 473 kts | 150° |
| 2026-04-20 22:47 | -7.14811 | -79.59726 | 34898 ft | 473 kts | 150° |
| 2026-04-20 22:47 | -7.20687 | -79.56699 | 34908 ft | 473 kts | 150° |
| 2026-04-20 22:48 | -7.26535 | -79.53686 | 34921 ft | 474 kts | 150° |
| 2026-04-20 22:48 | -7.32419 | -79.50653 | 34906 ft | 474 kts | 150° |
| 2026-04-20 22:49 | -7.38304 | -79.47620 | 34919 ft | 474 kts | 150° |
| 2026-04-20 22:49 | -7.44194 | -79.44583 | 35036 ft | 476 kts | 150° |
| 2026-04-20 22:50 | -7.47128 | -79.43069 | 35259 ft | 475 kts | 150° |
| 2026-04-20 22:50 | -7.50058 | -79.41559 | 35580 ft | 471 kts | 150° |
| 2026-04-20 22:50 | -7.52961 | -79.40061 | 35872 ft | 467 kts | 150° |
| 2026-04-20 22:50 | -7.55850 | -79.38571 | 36083 ft | 466 kts | 150° |
| 2026-04-20 22:51 | -7.58739 | -79.37080 | 36226 ft | 467 kts | 150° |
| 2026-04-20 22:51 | -7.61597 | -79.35604 | 36359 ft | 467 kts | 150° |
| 2026-04-20 22:51 | -7.64487 | -79.34111 | 36529 ft | 467 kts | 150° |
| 2026-04-20 22:51 | -7.67369 | -79.32623 | 36719 ft | 465 kts | 150° |
| 2026-04-20 22:52 | -7.70251 | -79.31134 | 36892 ft | 465 kts | 150° |
| 2026-04-20 22:52 | -7.73134 | -79.29645 | 36901 ft | 467 kts | 150° |
| 2026-04-20 22:52 | -7.78921 | -79.26655 | 36930 ft | 467 kts | 150° |
| 2026-04-20 22:53 | -7.84685 | -79.23676 | 36920 ft | 464 kts | 150° |
| 2026-04-20 22:53 | -7.90456 | -79.20693 | 36913 ft | 462 kts | 150° |
| 2026-04-20 22:54 | -7.96172 | -79.17737 | 36916 ft | 461 kts | 150° |
| 2026-04-20 22:54 | -8.01865 | -79.14790 | 36911 ft | 460 kts | 150° |
| 2026-04-20 22:55 | -8.07568 | -79.11846 | 36913 ft | 460 kts | 152° |
| 2026-04-20 22:55 | -8.13649 | -79.09752 | 36937 ft | 464 kts | 163° |
| 2026-04-20 22:56 | -8.19923 | -79.08138 | 36924 ft | 466 kts | 163° |
| 2026-04-20 22:56 | -8.26187 | -79.06520 | 36919 ft | 468 kts | 163° |
| 2026-04-20 22:57 | -8.32489 | -79.04849 | 36928 ft | 469 kts | 162° |
| 2026-04-20 22:57 | -8.38809 | -79.03153 | 36918 ft | 470 kts | 162° |
| 2026-04-20 22:58 | -8.45146 | -79.01448 | 36922 ft | 471 kts | 162° |
| 2026-04-20 22:58 | -8.51422 | -78.99760 | 36929 ft | 472 kts | 162° |
| 2026-04-20 22:59 | -8.57772 | -78.98053 | 36920 ft | 472 kts | 162° |
| 2026-04-20 22:59 | -8.64117 | -78.96347 | 36919 ft | 472 kts | 162° |
| 2026-04-20 23:00 | -8.70464 | -78.94640 | 36925 ft | 472 kts | 162° |
| 2026-04-20 23:00 | -8.76759 | -78.92946 | 36922 ft | 471 kts | 162° |
| 2026-04-20 23:01 | -8.83139 | -78.91228 | 36926 ft | 471 kts | 162° |
| 2026-04-20 23:01 | -8.89473 | -78.89523 | 36927 ft | 471 kts | 162° |
| 2026-04-20 23:02 | -8.95802 | -78.87823 | 36939 ft | 470 kts | 163° |
| 2026-04-20 23:02 | -9.02126 | -78.86118 | 36940 ft | 470 kts | 163° |
| 2026-04-20 23:03 | -9.08440 | -78.84412 | 36946 ft | 470 kts | 163° |
| 2026-04-20 23:03 | -9.14714 | -78.82719 | 36924 ft | 469 kts | 163° |
| 2026-04-20 23:04 | -9.21023 | -78.81018 | 36925 ft | 469 kts | 163° |
| 2026-04-20 23:04 | -9.27326 | -78.79317 | 36923 ft | 469 kts | 163° |
| 2026-04-20 23:05 | -9.33638 | -78.77613 | 36922 ft | 469 kts | 163° |
| 2026-04-20 23:05 | -9.39955 | -78.75906 | 36931 ft | 470 kts | 163° |
| 2026-04-20 23:06 | -9.46288 | -78.74195 | 36943 ft | 471 kts | 163° |
| 2026-04-20 23:06 | -9.52642 | -78.72478 | 36954 ft | 473 kts | 163° |
| 2026-04-20 23:07 | -9.58979 | -78.70764 | 36956 ft | 474 kts | 163° |
| 2026-04-20 23:07 | -9.65354 | -78.69039 | 36976 ft | 475 kts | 163° |
| 2026-04-20 23:08 | -9.71761 | -78.67305 | 36989 ft | 477 kts | 163° |
| 2026-04-20 23:08 | -9.78187 | -78.65565 | 36996 ft | 478 kts | 163° |
| 2026-04-20 23:09 | -9.84592 | -78.63829 | 36995 ft | 478 kts | 163° |
| 2026-04-20 23:09 | -9.91049 | -78.62078 | 36994 ft | 479 kts | 163° |
| 2026-04-20 23:10 | -9.97494 | -78.60330 | 36987 ft | 479 kts | 163° |
| 2026-04-20 23:10 | -10.03906 | -78.58590 | 36978 ft | 479 kts | 163° |
| 2026-04-20 23:11 | -10.10378 | -78.56833 | 36983 ft | 479 kts | 163° |
| 2026-04-20 23:11 | -10.16798 | -78.55089 | 36978 ft | 479 kts | 163° |
| 2026-04-20 23:12 | -10.23251 | -78.53336 | 36977 ft | 479 kts | 163° |
| 2026-04-20 23:12 | -10.29691 | -78.51585 | 36975 ft | 478 kts | 163° |
| 2026-04-20 23:13 | -10.36087 | -78.49846 | 36973 ft | 478 kts | 163° |
| 2026-04-20 23:13 | -10.42527 | -78.48094 | 36968 ft | 478 kts | 163° |
| 2026-04-20 23:14 | -10.48928 | -78.46351 | 36971 ft | 478 kts | 163° |
| 2026-04-20 23:14 | -10.55357 | -78.44600 | 36969 ft | 478 kts | 163° |
| 2026-04-20 23:15 | -10.61792 | -78.42848 | 36970 ft | 478 kts | 163° |
| 2026-04-20 23:15 | -10.68172 | -78.41109 | 36972 ft | 478 kts | 163° |
| 2026-04-20 23:16 | -10.74624 | -78.39349 | 36984 ft | 477 kts | 164° |
| 2026-04-20 23:16 | -10.81036 | -78.37600 | 36971 ft | 478 kts | 164° |
| 2026-04-20 23:17 | -10.87448 | -78.35850 | 36970 ft | 477 kts | 164° |
| 2026-04-20 23:17 | -10.93873 | -78.34096 | 36970 ft | 477 kts | 164° |
| 2026-04-20 23:18 | -11.00264 | -78.32351 | 36972 ft | 477 kts | 164° |
| 2026-04-20 23:18 | -11.06651 | -78.30605 | 36972 ft | 477 kts | 164° |
| 2026-04-20 23:19 | -11.13071 | -78.28850 | 36969 ft | 477 kts | 164° |
| 2026-04-20 23:19 | -11.19476 | -78.27098 | 36975 ft | 477 kts | 164° |
| 2026-04-20 23:20 | -11.25898 | -78.25341 | 36975 ft | 477 kts | 164° |
| 2026-04-20 23:20 | -11.32297 | -78.23589 | 36978 ft | 478 kts | 164° |
| 2026-04-20 23:21 | -11.38733 | -78.21826 | 36975 ft | 478 kts | 164° |
| 2026-04-20 23:21 | -11.45158 | -78.20066 | 36975 ft | 478 kts | 164° |
| 2026-04-20 23:22 | -11.51560 | -78.18310 | 36979 ft | 479 kts | 164° |
| 2026-04-20 23:22 | -11.58011 | -78.16541 | 36977 ft | 479 kts | 164° |
| 2026-04-20 23:23 | -11.64417 | -78.14783 | 36978 ft | 479 kts | 164° |
| 2026-04-20 23:23 | -11.70889 | -78.13006 | 36979 ft | 479 kts | 164° |
| 2026-04-20 23:24 | -11.77301 | -78.11245 | 36980 ft | 479 kts | 164° |
| 2026-04-20 23:24 | -11.83733 | -78.09477 | 36980 ft | 479 kts | 164° |
| 2026-04-20 23:25 | -11.90175 | -78.07706 | 36982 ft | 479 kts | 164° |
| 2026-04-20 23:25 | -11.96609 | -78.05936 | 36982 ft | 480 kts | 164° |
| 2026-04-20 23:26 | -12.03061 | -78.04160 | 36979 ft | 480 kts | 164° |
| 2026-04-20 23:26 | -12.09488 | -78.02391 | 36986 ft | 480 kts | 164° |
| 2026-04-20 23:27 | -12.14894 | -78.00901 | 36989 ft | 480 kts | 164° |
| 2026-04-20 23:27 | -12.21222 | -77.99157 | 36985 ft | 480 kts | 164° |
| 2026-04-20 23:28 | -12.27678 | -77.97377 | 36982 ft | 480 kts | 164° |
| 2026-04-20 23:28 | -12.34161 | -77.95589 | 36976 ft | 480 kts | 164° |
| 2026-04-20 23:29 | -12.40614 | -77.93808 | 36978 ft | 481 kts | 164° |
| 2026-04-20 23:29 | -12.47043 | -77.92032 | 36982 ft | 481 kts | 164° |
| 2026-04-20 23:30 | -12.53512 | -77.90245 | 36979 ft | 482 kts | 164° |
| 2026-04-20 23:30 | -12.59991 | -77.88453 | 36986 ft | 483 kts | 164° |
| 2026-04-20 23:31 | -12.66484 | -77.86657 | 36986 ft | 484 kts | 164° |
| 2026-04-20 23:31 | -12.72994 | -77.84856 | 36985 ft | 485 kts | 164° |
| 2026-04-20 23:32 | -12.79495 | -77.83056 | 36987 ft | 486 kts | 164° |
| 2026-04-20 23:32 | -12.86064 | -77.81236 | 36983 ft | 487 kts | 164° |
| 2026-04-20 23:33 | -12.92580 | -77.79429 | 36991 ft | 487 kts | 164° |
| 2026-04-20 23:33 | -12.99129 | -77.77613 | 36990 ft | 488 kts | 164° |
| 2026-04-20 23:34 | -13.05661 | -77.75801 | 36989 ft | 488 kts | 164° |
| 2026-04-20 23:34 | -13.12222 | -77.73979 | 36990 ft | 488 kts | 164° |
| 2026-04-20 23:35 | -13.22089 | -77.71238 | 36989 ft | 488 kts | 164° |
| 2026-04-20 23:36 | -13.28607 | -77.69425 | 36999 ft | 488 kts | 164° |
| 2026-04-20 23:36 | -13.35172 | -77.67599 | 36993 ft | 488 kts | 164° |
| 2026-04-20 23:37 | -13.41759 | -77.65766 | 36992 ft | 488 kts | 164° |
| 2026-04-20 23:37 | -13.48290 | -77.63947 | 36995 ft | 488 kts | 164° |
| 2026-04-20 23:38 | -13.54828 | -77.62125 | 36998 ft | 488 kts | 164° |
| 2026-04-20 23:38 | -13.61361 | -77.60303 | 36994 ft | 488 kts | 164° |
| 2026-04-20 23:39 | -13.67939 | -77.58468 | 36997 ft | 488 kts | 164° |
| 2026-04-20 23:39 | -13.74489 | -77.56639 | 36998 ft | 488 kts | 164° |
| 2026-04-20 23:40 | -13.81007 | -77.54819 | 37000 ft | 488 kts | 164° |
| 2026-04-20 23:40 | -13.87587 | -77.52980 | 37001 ft | 488 kts | 164° |
| 2026-04-20 23:41 | -13.94154 | -77.51144 | 36996 ft | 489 kts | 165° |
| 2026-04-20 23:41 | -14.00691 | -77.49314 | 37002 ft | 489 kts | 165° |
| 2026-04-20 23:42 | -14.07253 | -77.47477 | 37003 ft | 489 kts | 165° |
| 2026-04-20 23:42 | -14.13849 | -77.45629 | 37004 ft | 490 kts | 165° |
| 2026-04-20 23:43 | -14.20407 | -77.43791 | 37002 ft | 490 kts | 165° |
| 2026-04-20 23:43 | -14.27012 | -77.41938 | 37000 ft | 491 kts | 165° |
| 2026-04-20 23:44 | -14.33630 | -77.40129 | 37009 ft | 491 kts | 165° |
| 2026-04-20 23:44 | -14.40208 | -77.38378 | 37006 ft | 491 kts | 165° |
| 2026-04-20 23:45 | -14.46863 | -77.36605 | 37002 ft | 492 kts | 165° |
| 2026-04-20 23:45 | -14.53454 | -77.34839 | 37007 ft | 492 kts | 165° |
| 2026-04-20 23:46 | -14.60086 | -77.33057 | 37015 ft | 492 kts | 165° |
| 2026-04-20 23:46 | -14.66743 | -77.31266 | 37008 ft | 493 kts | 165° |
| 2026-04-20 23:47 | -14.73378 | -77.29480 | 37008 ft | 493 kts | 165° |
| 2026-04-20 23:47 | -14.80013 | -77.27694 | 37010 ft | 493 kts | 165° |
| 2026-04-20 23:48 | -14.86647 | -77.25906 | 37012 ft | 494 kts | 165° |
| 2026-04-20 23:48 | -14.93289 | -77.24116 | 37013 ft | 494 kts | 165° |
| 2026-04-20 23:49 | -14.99941 | -77.22321 | 37014 ft | 494 kts | 165° |
| 2026-04-20 23:49 | -15.06607 | -77.20522 | 37016 ft | 494 kts | 165° |
| 2026-04-20 23:50 | -15.13255 | -77.18726 | 37020 ft | 493 kts | 165° |
| 2026-04-20 23:50 | -15.19881 | -77.16935 | 37016 ft | 493 kts | 165° |
| 2026-04-20 23:51 | -15.26528 | -77.15137 | 37018 ft | 493 kts | 165° |
| 2026-04-20 23:51 | -15.33157 | -77.13343 | 37017 ft | 493 kts | 166° |
| 2026-04-20 23:52 | -15.39762 | -77.11554 | 37023 ft | 493 kts | 166° |
| 2026-04-20 23:52 | -15.46408 | -77.09753 | 37021 ft | 493 kts | 166° |
| 2026-04-20 23:53 | -15.53058 | -77.07950 | 37016 ft | 493 kts | 165° |
| 2026-04-20 23:53 | -15.59690 | -77.06150 | 37027 ft | 493 kts | 165° |
| 2026-04-20 23:54 | -15.66317 | -77.04350 | 37025 ft | 494 kts | 166° |
| 2026-04-20 23:54 | -15.72971 | -77.02542 | 37026 ft | 494 kts | 166° |
| 2026-04-20 23:55 | -15.79635 | -77.00731 | 37024 ft | 495 kts | 166° |
| 2026-04-20 23:55 | -15.86216 | -76.98940 | 37028 ft | 496 kts | 166° |
| 2026-04-20 23:56 | -15.92871 | -76.97128 | 37028 ft | 496 kts | 166° |
| 2026-04-20 23:56 | -15.99556 | -76.95306 | 37028 ft | 497 kts | 166° |
| 2026-04-20 23:57 | -16.06247 | -76.93482 | 37033 ft | 498 kts | 166° |
| 2026-04-20 23:57 | -16.12951 | -76.91653 | 37032 ft | 498 kts | 166° |
| 2026-04-20 23:58 | -16.19660 | -76.89821 | 37033 ft | 499 kts | 166° |
| 2026-04-20 23:58 | -16.26370 | -76.87987 | 37033 ft | 499 kts | 166° |
| 2026-04-20 23:59 | -16.33089 | -76.86150 | 37031 ft | 499 kts | 166° |
| 2026-04-20 23:59 | -16.39760 | -76.84325 | 37039 ft | 499 kts | 166° |
| 2026-04-21 00:00 | -16.46479 | -76.82485 | 37033 ft | 499 kts | 166° |
| 2026-04-21 00:00 | -16.53198 | -76.80644 | 37042 ft | 499 kts | 166° |
| 2026-04-21 00:01 | -16.59916 | -76.78802 | 37038 ft | 499 kts | 166° |
| 2026-04-21 00:01 | -16.66632 | -76.76960 | 37045 ft | 499 kts | 166° |
| 2026-04-21 00:02 | -16.73349 | -76.75115 | 37033 ft | 499 kts | 166° |
| 2026-04-21 00:02 | -16.80069 | -76.73268 | 37041 ft | 499 kts | 166° |
| 2026-04-21 00:03 | -16.86789 | -76.71420 | 37041 ft | 499 kts | 166° |
| 2026-04-21 00:03 | -16.93505 | -76.69571 | 37035 ft | 499 kts | 166° |
| 2026-04-21 00:04 | -17.00220 | -76.67724 | 37043 ft | 499 kts | 167° |
| 2026-04-21 00:04 | -17.06936 | -76.65872 | 37048 ft | 499 kts | 167° |
| 2026-04-21 00:05 | -17.13658 | -76.64017 | 37050 ft | 499 kts | 167° |
| 2026-04-21 00:05 | -17.20377 | -76.62162 | 37048 ft | 500 kts | 167° |
| 2026-04-21 00:06 | -17.27097 | -76.60306 | 37049 ft | 500 kts | 167° |
| 2026-04-21 00:06 | -17.33786 | -76.58457 | 37037 ft | 500 kts | 167° |
| 2026-04-21 00:07 | -17.40514 | -76.56596 | 37051 ft | 500 kts | 167° |
| 2026-04-21 00:07 | -17.47248 | -76.54731 | 37056 ft | 501 kts | 167° |
| 2026-04-21 00:08 | -17.53991 | -76.52863 | 37053 ft | 501 kts | 167° |
| 2026-04-21 00:08 | -17.60733 | -76.50993 | 37056 ft | 501 kts | 167° |
| 2026-04-21 00:09 | -17.67485 | -76.49120 | 37047 ft | 502 kts | 168° |
| 2026-04-21 00:09 | -17.74237 | -76.47244 | 37048 ft | 502 kts | 167° |
| 2026-04-21 00:10 | -17.80990 | -76.45367 | 37058 ft | 502 kts | 167° |
| 2026-04-21 00:10 | -17.87747 | -76.43488 | 37051 ft | 502 kts | 167° |
| 2026-04-21 00:11 | -17.94505 | -76.41606 | 37049 ft | 502 kts | 167° |
| 2026-04-21 00:11 | -18.01255 | -76.39726 | 37052 ft | 502 kts | 168° |
| 2026-04-21 00:12 | -18.07999 | -76.37846 | 37052 ft | 503 kts | 168° |
| 2026-04-21 00:12 | -18.14766 | -76.35957 | 37052 ft | 503 kts | 168° |
| 2026-04-21 00:13 | -18.20370 | -76.34392 | 37052 ft | 503 kts | 168° |
| 2026-04-21 00:13 | -18.28284 | -76.32180 | 37054 ft | 503 kts | 168° |
| 2026-04-21 00:14 | -18.33888 | -76.30612 | 37055 ft | 502 kts | 168° |
| 2026-04-21 00:14 | -18.40626 | -76.28678 | 37054 ft | 503 kts | 167° |
| 2026-04-21 00:15 | -18.47355 | -76.26678 | 37054 ft | 503 kts | 167° |
| 2026-04-21 00:15 | -18.54091 | -76.24671 | 37060 ft | 503 kts | 167° |
| 2026-04-21 00:16 | -18.60827 | -76.22673 | 37064 ft | 503 kts | 167° |
| 2026-04-21 00:16 | -18.67568 | -76.20678 | 37062 ft | 503 kts | 167° |
| 2026-04-21 00:17 | -18.74308 | -76.18682 | 37057 ft | 503 kts | 167° |
| 2026-04-21 00:17 | -18.81049 | -76.16684 | 37057 ft | 503 kts | 167° |
| 2026-04-21 00:18 | -18.87798 | -76.14682 | 37061 ft | 503 kts | 167° |
| 2026-04-21 00:18 | -18.94541 | -76.12680 | 37080 ft | 503 kts | 168° |
| 2026-04-21 00:19 | -19.01239 | -76.10690 | 37063 ft | 504 kts | 168° |
| 2026-04-21 00:19 | -19.07983 | -76.08683 | 37059 ft | 504 kts | 168° |
| 2026-04-21 00:20 | -19.14727 | -76.06675 | 37065 ft | 504 kts | 168° |
| 2026-04-21 00:20 | -19.21472 | -76.04665 | 37065 ft | 503 kts | 168° |
| 2026-04-21 00:21 | -19.28218 | -76.02654 | 37076 ft | 503 kts | 168° |
| 2026-04-21 00:21 | -19.34964 | -76.00641 | 37065 ft | 504 kts | 168° |
| 2026-04-21 00:22 | -19.41593 | -75.98660 | 37064 ft | 504 kts | 168° |
| 2026-04-21 00:22 | -19.48340 | -75.96643 | 37062 ft | 504 kts | 168° |
| 2026-04-21 00:23 | -19.55083 | -75.94625 | 37064 ft | 504 kts | 168° |
| 2026-04-21 00:23 | -19.61836 | -75.92603 | 37077 ft | 504 kts | 168° |
| 2026-04-21 00:24 | -19.68586 | -75.90580 | 37066 ft | 504 kts | 168° |
| 2026-04-21 00:24 | -19.75347 | -75.88551 | 37066 ft | 504 kts | 168° |
| 2026-04-21 00:25 | -19.82094 | -75.86524 | 37069 ft | 504 kts | 168° |
| 2026-04-21 00:25 | -19.88844 | -75.84496 | 37069 ft | 504 kts | 168° |
| 2026-04-21 00:26 | -19.95598 | -75.82464 | 37075 ft | 504 kts | 169° |
| 2026-04-21 00:26 | -20.02342 | -75.80434 | 37070 ft | 504 kts | 169° |
| 2026-04-21 00:27 | -20.09091 | -75.78400 | 37067 ft | 504 kts | 169° |
| 2026-04-21 00:27 | -20.15838 | -75.76364 | 37072 ft | 504 kts | 169° |
| 2026-04-21 00:28 | -20.22582 | -75.74328 | 37085 ft | 504 kts | 169° |
| 2026-04-21 00:28 | -20.29283 | -75.72303 | 37075 ft | 504 kts | 169° |
| 2026-04-21 00:29 | -20.36028 | -75.70264 | 37070 ft | 503 kts | 169° |
| 2026-04-21 00:29 | -20.42760 | -75.68226 | 37074 ft | 503 kts | 169° |
| 2026-04-21 00:30 | -20.49485 | -75.66188 | 37075 ft | 502 kts | 169° |
| 2026-04-21 00:30 | -20.56206 | -75.64150 | 37090 ft | 502 kts | 169° |
| 2026-04-21 00:31 | -20.62928 | -75.62109 | 37076 ft | 502 kts | 169° |
| 2026-04-21 00:31 | -20.69642 | -75.60069 | 37075 ft | 502 kts | 169° |
| 2026-04-21 00:32 | -20.76364 | -75.58025 | 37075 ft | 501 kts | 169° |
| 2026-04-21 00:32 | -20.83082 | -75.55980 | 37079 ft | 501 kts | 169° |
| 2026-04-21 00:33 | -20.89799 | -75.53934 | 37083 ft | 501 kts | 169° |
| 2026-04-21 00:33 | -20.96513 | -75.51886 | 37081 ft | 502 kts | 169° |
| 2026-04-21 00:34 | -21.03223 | -75.49838 | 37080 ft | 502 kts | 169° |
| 2026-04-21 00:34 | -21.09934 | -75.47788 | 37078 ft | 502 kts | 169° |
| 2026-04-21 00:35 | -21.16656 | -75.45732 | 37086 ft | 502 kts | 169° |
| 2026-04-21 00:35 | -21.23381 | -75.43673 | 37082 ft | 503 kts | 169° |
| 2026-04-21 00:36 | -21.30113 | -75.41610 | 37084 ft | 503 kts | 169° |
| 2026-04-21 00:36 | -21.36844 | -75.39545 | 37080 ft | 503 kts | 169° |
| 2026-04-21 00:37 | -21.43319 | -75.36530 | 37089 ft | 514 kts | 152° |
| 2026-04-21 00:37 | -21.46230 | -75.34275 | 37076 ft | 519 kts | 141° |
| 2026-04-21 00:37 | -21.48926 | -75.31701 | 37094 ft | 519 kts | 140° |
| 2026-04-21 00:38 | -21.54208 | -75.26486 | 37086 ft | 519 kts | 140° |
| 2026-04-21 00:38 | -21.59531 | -75.21249 | 37082 ft | 519 kts | 140° |
| 2026-04-21 00:39 | -21.64887 | -75.16054 | 37078 ft | 518 kts | 140° |
| 2026-04-21 00:39 | -21.70259 | -75.10873 | 37083 ft | 518 kts | 141° |
| 2026-04-21 00:40 | -21.75620 | -75.05701 | 37082 ft | 518 kts | 141° |
| 2026-04-21 00:40 | -21.80976 | -75.00523 | 37083 ft | 518 kts | 141° |
| 2026-04-21 00:41 | -21.86231 | -74.95436 | 37084 ft | 517 kts | 141° |
| 2026-04-21 00:41 | -21.91577 | -74.90254 | 37082 ft | 517 kts | 141° |
| 2026-04-21 00:42 | -21.96924 | -74.85065 | 37088 ft | 517 kts | 141° |
| 2026-04-21 00:42 | -22.02260 | -74.79883 | 37086 ft | 517 kts | 141° |
| 2026-04-21 00:43 | -22.07606 | -74.74685 | 37098 ft | 518 kts | 141° |
| 2026-04-21 00:43 | -22.12963 | -74.69471 | 37091 ft | 519 kts | 141° |
| 2026-04-21 00:44 | -22.18323 | -74.64249 | 37090 ft | 520 kts | 141° |
| 2026-04-21 00:44 | -22.23694 | -74.59010 | 37086 ft | 521 kts | 141° |
| 2026-04-21 00:45 | -22.31762 | -74.51129 | 37086 ft | 522 kts | 141° |
| 2026-04-21 00:45 | -22.37157 | -74.45852 | 37088 ft | 523 kts | 141° |
| 2026-04-21 00:46 | -22.42558 | -74.40563 | 37090 ft | 524 kts | 141° |
| 2026-04-21 00:46 | -22.47964 | -74.35265 | 37071 ft | 525 kts | 141° |
| 2026-04-21 00:47 | -22.53370 | -74.29959 | 37091 ft | 525 kts | 141° |
| 2026-04-21 00:47 | -22.58782 | -74.24642 | 37080 ft | 525 kts | 141° |
| 2026-04-21 00:48 | -22.64182 | -74.19331 | 37102 ft | 525 kts | 141° |
| 2026-04-21 00:48 | -22.69587 | -74.14010 | 37085 ft | 525 kts | 141° |
| 2026-04-21 00:49 | -22.74953 | -74.08720 | 37090 ft | 525 kts | 141° |
| 2026-04-21 00:49 | -22.80354 | -74.03391 | 37084 ft | 524 kts | 141° |
| 2026-04-21 00:50 | -22.85671 | -73.98138 | 37079 ft | 524 kts | 141° |
| 2026-04-21 00:50 | -22.91052 | -73.92816 | 37091 ft | 523 kts | 141° |
| 2026-04-21 00:51 | -22.96435 | -73.87487 | 37098 ft | 524 kts | 141° |
| 2026-04-21 00:51 | -23.01813 | -73.82156 | 37094 ft | 524 kts | 141° |
| 2026-04-21 00:52 | -23.07198 | -73.76812 | 37093 ft | 524 kts | 141° |
| 2026-04-21 00:52 | -23.12580 | -73.71466 | 37094 ft | 525 kts | 141° |
| 2026-04-21 00:53 | -23.17970 | -73.66105 | 37090 ft | 525 kts | 141° |
| 2026-04-21 00:53 | -23.23360 | -73.60738 | 37095 ft | 526 kts | 141° |
| 2026-04-21 00:54 | -23.28753 | -73.55363 | 37093 ft | 526 kts | 141° |
| 2026-04-21 00:54 | -23.34150 | -73.49976 | 37089 ft | 527 kts | 141° |
| 2026-04-21 00:55 | -23.39552 | -73.44579 | 37091 ft | 527 kts | 141° |
| 2026-04-21 00:55 | -23.44957 | -73.39172 | 37090 ft | 528 kts | 141° |
| 2026-04-21 00:56 | -23.50362 | -73.33759 | 37101 ft | 529 kts | 141° |
| 2026-04-21 00:56 | -23.55776 | -73.28330 | 37091 ft | 529 kts | 141° |
| 2026-04-21 00:57 | -23.60274 | -73.23815 | 37097 ft | 529 kts | 141° |
| 2026-04-21 00:57 | -23.65692 | -73.18371 | 37091 ft | 529 kts | 141° |
| 2026-04-21 00:58 | -23.71105 | -73.12925 | 37094 ft | 529 kts | 141° |
| 2026-04-21 00:58 | -23.76518 | -73.07474 | 37106 ft | 529 kts | 141° |
| 2026-04-21 00:59 | -23.81929 | -73.02018 | 37099 ft | 530 kts | 141° |
| 2026-04-21 00:59 | -23.87243 | -72.96652 | 37095 ft | 530 kts | 141° |
| 2026-04-21 01:00 | -23.92652 | -72.91185 | 37092 ft | 529 kts | 141° |
| 2026-04-21 01:00 | -23.98058 | -72.85714 | 37097 ft | 529 kts | 141° |
| 2026-04-21 01:01 | -24.03448 | -72.80253 | 37121 ft | 529 kts | 141° |
| 2026-04-21 01:01 | -24.08850 | -72.74774 | 37108 ft | 530 kts | 141° |
| 2026-04-21 01:02 | -24.14256 | -72.69283 | 37099 ft | 530 kts | 141° |
| 2026-04-21 01:02 | -24.19660 | -72.63789 | 37096 ft | 530 kts | 141° |
| 2026-04-21 01:03 | -24.25068 | -72.58282 | 37084 ft | 530 kts | 141° |
| 2026-04-21 01:03 | -24.30468 | -72.52778 | 37090 ft | 530 kts | 141° |
| 2026-04-21 01:04 | -24.35835 | -72.47300 | 37096 ft | 530 kts | 141° |
| 2026-04-21 01:04 | -24.41238 | -72.41780 | 37096 ft | 530 kts | 141° |
| 2026-04-21 01:05 | -24.46637 | -72.36256 | 37093 ft | 530 kts | 141° |
| 2026-04-21 01:05 | -24.52028 | -72.30733 | 37097 ft | 530 kts | 141° |
| 2026-04-21 01:06 | -24.57418 | -72.25205 | 37117 ft | 530 kts | 142° |
| 2026-04-21 01:06 | -24.62811 | -72.19668 | 37110 ft | 531 kts | 141° |
| 2026-04-21 01:07 | -24.68200 | -72.14128 | 37094 ft | 531 kts | 141° |
| 2026-04-21 01:07 | -24.73593 | -72.08576 | 37093 ft | 531 kts | 141° |
| 2026-04-21 01:08 | -24.78978 | -72.03025 | 37094 ft | 531 kts | 141° |
| 2026-04-21 01:08 | -24.84297 | -71.97536 | 37116 ft | 531 kts | 142° |
| 2026-04-21 01:09 | -24.89688 | -71.91966 | 37100 ft | 532 kts | 142° |
| 2026-04-21 01:09 | -24.95080 | -71.86388 | 37102 ft | 532 kts | 142° |
| 2026-04-21 01:10 | -25.00470 | -71.80804 | 37097 ft | 532 kts | 142° |
| 2026-04-21 01:10 | -25.05860 | -71.75214 | 37099 ft | 532 kts | 142° |
| 2026-04-21 01:11 | -25.11224 | -71.69643 | 37117 ft | 533 kts | 142° |
| 2026-04-21 01:11 | -25.16630 | -71.64023 | 37102 ft | 534 kts | 142° |
| 2026-04-21 01:12 | -25.22031 | -71.58399 | 37104 ft | 534 kts | 142° |
| 2026-04-21 01:12 | -25.27433 | -71.52768 | 37091 ft | 534 kts | 142° |
| 2026-04-21 01:13 | -25.32836 | -71.47127 | 37093 ft | 534 kts | 142° |
| 2026-04-21 01:13 | -25.38236 | -71.41483 | 37107 ft | 534 kts | 142° |
| 2026-04-21 01:14 | -25.43640 | -71.35828 | 37102 ft | 535 kts | 142° |
| 2026-04-21 01:14 | -25.49047 | -71.30162 | 37098 ft | 535 kts | 142° |
| 2026-04-21 01:15 | -25.54442 | -71.24502 | 37097 ft | 535 kts | 142° |
| 2026-04-21 01:15 | -25.59838 | -71.18832 | 37098 ft | 535 kts | 142° |
| 2026-04-21 01:16 | -25.65235 | -71.13155 | 37103 ft | 535 kts | 142° |
| 2026-04-21 01:16 | -25.70634 | -71.07468 | 37104 ft | 535 kts | 142° |
| 2026-04-21 01:17 | -25.76033 | -71.01772 | 37097 ft | 535 kts | 142° |
| 2026-04-21 01:17 | -25.81301 | -70.96208 | 37098 ft | 535 kts | 142° |
| 2026-04-21 01:18 | -25.86696 | -70.90503 | 37100 ft | 535 kts | 142° |
| 2026-04-21 01:18 | -25.92089 | -70.84792 | 37096 ft | 536 kts | 142° |
| 2026-04-21 01:19 | -25.97476 | -70.79079 | 37101 ft | 535 kts | 142° |
| 2026-04-21 01:19 | -26.02856 | -70.73368 | 37100 ft | 535 kts | 142° |
| 2026-04-21 01:20 | -26.08238 | -70.67645 | 37101 ft | 535 kts | 142° |
| 2026-04-21 01:20 | -26.13613 | -70.61922 | 37129 ft | 535 kts | 142° |
| 2026-04-21 01:21 | -26.18991 | -70.56189 | 37105 ft | 536 kts | 142° |
| 2026-04-21 01:21 | -26.24377 | -70.50439 | 37096 ft | 535 kts | 142° |
| 2026-04-21 01:22 | -26.29748 | -70.44696 | 37111 ft | 535 kts | 141° |
| 2026-04-21 01:22 | -26.35114 | -70.38962 | 37112 ft | 534 kts | 142° |
| 2026-04-21 01:23 | -26.40509 | -70.33253 | 37118 ft | 535 kts | 142° |
| 2026-04-21 01:23 | -26.45916 | -70.27552 | 37117 ft | 534 kts | 142° |
| 2026-04-21 01:24 | -26.51310 | -70.21852 | 37106 ft | 534 kts | 142° |
| 2026-04-21 01:24 | -26.56688 | -70.16142 | 37099 ft | 533 kts | 142° |
| 2026-04-21 01:25 | -26.62020 | -70.10476 | 37099 ft | 532 kts | 142° |
| 2026-04-21 01:25 | -26.67371 | -70.04785 | 37113 ft | 531 kts | 142° |
| 2026-04-21 01:26 | -26.72626 | -69.99185 | 37112 ft | 530 kts | 142° |
| 2026-04-21 01:26 | -26.77959 | -69.93495 | 37122 ft | 529 kts | 142° |
| 2026-04-21 01:27 | -26.83291 | -69.87800 | 37127 ft | 530 kts | 142° |
| 2026-04-21 01:27 | -26.88621 | -69.82099 | 37132 ft | 531 kts | 142° |
| 2026-04-21 01:28 | -26.93961 | -69.76379 | 37162 ft | 532 kts | 142° |
| 2026-04-21 01:28 | -26.99318 | -69.70632 | 37168 ft | 533 kts | 142° |
| 2026-04-21 01:29 | -27.04663 | -69.64889 | 37187 ft | 531 kts | 142° |
| 2026-04-21 01:29 | -27.09996 | -69.59153 | 37186 ft | 532 kts | 142° |
| 2026-04-21 01:30 | -27.15328 | -69.53409 | 37186 ft | 532 kts | 142° |
| 2026-04-21 01:30 | -27.20663 | -69.47654 | 37240 ft | 532 kts | 142° |
| 2026-04-21 01:31 | -27.26004 | -69.41886 | 37239 ft | 533 kts | 142° |
| 2026-04-21 01:31 | -27.31348 | -69.36107 | 37287 ft | 533 kts | 142° |
| 2026-04-21 01:32 | -27.36694 | -69.30315 | 37310 ft | 534 kts | 142° |
| 2026-04-21 01:32 | -27.42039 | -69.24511 | 37316 ft | 532 kts | 142° |
| 2026-04-21 01:33 | -27.47357 | -69.18732 | 37293 ft | 531 kts | 141° |
| 2026-04-21 01:33 | -27.52672 | -69.12955 | 37338 ft | 531 kts | 141° |
| 2026-04-21 01:34 | -27.57990 | -69.07165 | 37327 ft | 532 kts | 141° |
| 2026-04-21 01:34 | -27.63307 | -69.01363 | 37374 ft | 531 kts | 141° |
| 2026-04-21 01:35 | -27.68518 | -68.95669 | 37387 ft | 531 kts | 141° |
| 2026-04-21 01:35 | -27.73861 | -68.89826 | 37369 ft | 531 kts | 141° |
| 2026-04-21 01:36 | -27.79124 | -68.84061 | 37297 ft | 530 kts | 141° |
| 2026-04-21 01:36 | -27.84396 | -68.78273 | 37325 ft | 528 kts | 140° |
| 2026-04-21 01:37 | -27.89646 | -68.72505 | 37291 ft | 526 kts | 141° |
| 2026-04-21 01:37 | -27.94891 | -68.66732 | 37249 ft | 526 kts | 140° |
| 2026-04-21 01:38 | -28.00125 | -68.60985 | 37216 ft | 525 kts | 141° |
| 2026-04-21 01:38 | -28.05325 | -68.55236 | 37174 ft | 519 kts | 141° |
| 2026-04-21 01:39 | -28.10459 | -68.49552 | 37179 ft | 516 kts | 141° |
| 2026-04-21 01:39 | -28.15594 | -68.43873 | 37134 ft | 516 kts | 141° |
| 2026-04-21 01:40 | -28.20720 | -68.38196 | 37108 ft | 516 kts | 141° |
| 2026-04-21 01:40 | -28.25887 | -68.32462 | 37099 ft | 523 kts | 140° |
| 2026-04-21 01:41 | -28.31111 | -68.26658 | 37098 ft | 528 kts | 140° |
| 2026-04-21 01:41 | -28.36377 | -68.20797 | 37086 ft | 530 kts | 140° |
| 2026-04-21 01:42 | -28.41518 | -68.14913 | 37054 ft | 520 kts | 137° |
| 2026-04-21 01:42 | -28.45494 | -68.09794 | 37085 ft | 520 kts | 135° |
| 2026-04-21 01:43 | -28.50187 | -68.03522 | 37089 ft | 522 kts | 135° |
| 2026-04-21 01:43 | -28.54870 | -67.97323 | 37126 ft | 524 kts | 135° |
| 2026-04-21 01:44 | -28.59676 | -67.91042 | 37083 ft | 528 kts | 135° |
| 2026-04-21 01:44 | -28.64525 | -67.84729 | 37087 ft | 531 kts | 134° |
| 2026-04-21 01:45 | -28.69373 | -67.78392 | 37099 ft | 530 kts | 135° |
| 2026-04-21 01:45 | -28.74230 | -67.72076 | 37089 ft | 529 kts | 135° |
| 2026-04-21 01:46 | -28.79070 | -67.65730 | 37095 ft | 531 kts | 135° |
| 2026-04-21 01:46 | -28.83913 | -67.59349 | 37089 ft | 532 kts | 135° |
| 2026-04-21 01:47 | -28.88718 | -67.53016 | 37061 ft | 531 kts | 135° |
| 2026-04-21 01:47 | -28.93548 | -67.46650 | 37086 ft | 529 kts | 135° |
| 2026-04-21 01:48 | -28.98361 | -67.40306 | 37090 ft | 528 kts | 135° |
| 2026-04-21 01:48 | -29.03195 | -67.33921 | 37090 ft | 528 kts | 135° |
| 2026-04-21 01:49 | -29.07963 | -67.27613 | 37099 ft | 528 kts | 135° |
| 2026-04-21 01:49 | -29.12797 | -67.21208 | 37089 ft | 529 kts | 135° |
| 2026-04-21 01:50 | -29.17541 | -67.14895 | 37074 ft | 523 kts | 135° |
| 2026-04-21 01:50 | -29.22281 | -67.08597 | 37109 ft | 523 kts | 135° |
| 2026-04-21 01:51 | -29.27031 | -67.02286 | 37136 ft | 524 kts | 135° |
| 2026-04-21 01:51 | -29.31746 | -66.96005 | 37160 ft | 527 kts | 135° |
| 2026-04-21 01:52 | -29.38934 | -66.86401 | 37146 ft | 530 kts | 135° |
| 2026-04-21 01:53 | -29.43737 | -66.79970 | 37170 ft | 532 kts | 135° |
| 2026-04-21 01:53 | -29.48551 | -66.73516 | 37160 ft | 533 kts | 135° |
| 2026-04-21 01:54 | -29.53372 | -66.67041 | 37101 ft | 533 kts | 135° |
| 2026-04-21 01:54 | -29.58188 | -66.60562 | 37098 ft | 533 kts | 135° |
| 2026-04-21 01:55 | -29.62998 | -66.54082 | 37118 ft | 532 kts | 135° |
| 2026-04-21 01:55 | -29.67801 | -66.47601 | 37097 ft | 532 kts | 135° |
| 2026-04-21 01:56 | -29.72596 | -66.41120 | 37092 ft | 532 kts | 135° |
| 2026-04-21 01:56 | -29.77389 | -66.34631 | 37093 ft | 531 kts | 135° |
| 2026-04-21 01:57 | -29.82173 | -66.28144 | 37091 ft | 531 kts | 135° |
| 2026-04-21 01:57 | -29.86943 | -66.21665 | 37095 ft | 531 kts | 135° |
| 2026-04-21 01:58 | -29.91719 | -66.15169 | 37093 ft | 531 kts | 135° |
| 2026-04-21 01:58 | -29.96488 | -66.08671 | 37096 ft | 531 kts | 135° |
| 2026-04-21 01:59 | -30.01249 | -66.02173 | 37100 ft | 531 kts | 135° |
| 2026-04-21 01:59 | -30.05941 | -65.95759 | 37118 ft | 532 kts | 135° |
| 2026-04-21 02:00 | -30.10693 | -65.89254 | 37089 ft | 533 kts | 134° |
| 2026-04-21 02:00 | -30.15470 | -65.82702 | 37098 ft | 533 kts | 134° |
| 2026-04-21 02:01 | -30.20240 | -65.76148 | 37097 ft | 533 kts | 134° |
| 2026-04-21 02:01 | -30.25015 | -65.69578 | 37093 ft | 533 kts | 134° |
| 2026-04-21 02:02 | -30.29823 | -65.62951 | 37097 ft | 535 kts | 134° |
| 2026-04-21 02:02 | -30.34598 | -65.56359 | 37081 ft | 534 kts | 134° |
| 2026-04-21 02:03 | -30.39342 | -65.49798 | 37087 ft | 534 kts | 134° |
| 2026-04-21 02:03 | -30.44110 | -65.43193 | 37084 ft | 534 kts | 134° |
| 2026-04-21 02:04 | -30.48875 | -65.36581 | 37086 ft | 535 kts | 134° |
| 2026-04-21 02:04 | -30.53643 | -65.29955 | 37087 ft | 535 kts | 134° |
| 2026-04-21 02:05 | -30.58406 | -65.23324 | 37075 ft | 535 kts | 134° |
| 2026-04-21 02:05 | -30.63163 | -65.16688 | 37080 ft | 535 kts | 134° |
| 2026-04-21 02:06 | -30.67920 | -65.10044 | 37094 ft | 535 kts | 134° |
| 2026-04-21 02:06 | -30.72680 | -65.03384 | 37088 ft | 536 kts | 134° |
| 2026-04-21 02:07 | -30.77385 | -64.96789 | 37062 ft | 536 kts | 134° |
| 2026-04-21 02:07 | -30.82136 | -64.90117 | 37086 ft | 535 kts | 134° |
| 2026-04-21 02:08 | -30.86883 | -64.83441 | 37117 ft | 535 kts | 134° |
| 2026-04-21 02:08 | -30.91632 | -64.76750 | 37102 ft | 535 kts | 134° |
| 2026-04-21 02:09 | -30.96374 | -64.70057 | 37099 ft | 536 kts | 134° |
| 2026-04-21 02:09 | -31.01100 | -64.63375 | 37104 ft | 535 kts | 134° |
| 2026-04-21 02:10 | -31.05839 | -64.56664 | 37135 ft | 536 kts | 134° |
| 2026-04-21 02:10 | -31.10576 | -64.49944 | 37124 ft | 537 kts | 134° |
| 2026-04-21 02:11 | -31.15316 | -64.43208 | 37135 ft | 537 kts | 134° |
| 2026-04-21 02:11 | -31.20022 | -64.36508 | 37124 ft | 537 kts | 134° |
| 2026-04-21 02:12 | -31.24752 | -64.29760 | 37129 ft | 536 kts | 133° |
| 2026-04-21 02:12 | -31.29463 | -64.22998 | 37127 ft | 537 kts | 130° |
| 2026-04-21 02:13 | -31.33171 | -64.15363 | 37123 ft | 543 kts | 112° |
| 2026-04-21 02:13 | -31.35841 | -64.07087 | 37128 ft | 543 kts | 111° |
| 2026-04-21 02:14 | -31.38439 | -63.98883 | 37126 ft | 543 kts | 111° |
| 2026-04-21 02:14 | -31.41114 | -63.90616 | 37127 ft | 543 kts | 112° |
| 2026-04-21 02:15 | -31.43831 | -63.82333 | 37127 ft | 544 kts | 112° |
| 2026-04-21 02:15 | -31.46543 | -63.74070 | 37094 ft | 544 kts | 112° |
| 2026-04-21 02:16 | -31.49250 | -63.65788 | 37110 ft | 544 kts | 111° |
| 2026-04-21 02:16 | -31.51935 | -63.57540 | 37109 ft | 544 kts | 111° |
| 2026-04-21 02:17 | -31.54622 | -63.49262 | 37103 ft | 544 kts | 111° |
| 2026-04-21 02:17 | -31.57306 | -63.40974 | 37103 ft | 544 kts | 111° |
| 2026-04-21 02:18 | -31.59986 | -63.32677 | 37100 ft | 544 kts | 111° |
| 2026-04-21 02:18 | -31.62657 | -63.24386 | 37089 ft | 544 kts | 111° |
| 2026-04-21 02:19 | -31.65308 | -63.16134 | 37096 ft | 544 kts | 111° |
| 2026-04-21 02:19 | -31.67970 | -63.07829 | 37083 ft | 543 kts | 111° |
| 2026-04-21 02:20 | -31.70604 | -62.99591 | 37118 ft | 543 kts | 111° |
| 2026-04-21 02:20 | -31.73255 | -62.91277 | 37086 ft | 543 kts | 111° |
| 2026-04-21 02:21 | -31.75901 | -62.82957 | 37081 ft | 543 kts | 111° |
| 2026-04-21 02:21 | -31.78540 | -62.74636 | 37065 ft | 543 kts | 111° |
| 2026-04-21 02:22 | -31.81173 | -62.66313 | 37073 ft | 543 kts | 111° |
| 2026-04-21 02:22 | -31.83782 | -62.58045 | 37064 ft | 543 kts | 111° |
| 2026-04-21 02:23 | -31.86404 | -62.49715 | 37053 ft | 544 kts | 111° |
| 2026-04-21 02:23 | -31.89023 | -62.41372 | 37060 ft | 544 kts | 111° |
| 2026-04-21 02:24 | -31.91638 | -62.33019 | 37052 ft | 544 kts | 111° |
| 2026-04-21 02:24 | -31.94247 | -62.24661 | 37050 ft | 544 kts | 111° |
| 2026-04-21 02:25 | -31.96852 | -62.16295 | 37037 ft | 543 kts | 111° |
| 2026-04-21 02:25 | -31.99449 | -62.07933 | 37065 ft | 544 kts | 110° |
| 2026-04-21 02:26 | -32.02013 | -61.99656 | 37039 ft | 544 kts | 110° |
| 2026-04-21 02:26 | -32.04604 | -61.91268 | 37000 ft | 545 kts | 110° |
| 2026-04-21 02:27 | -32.07186 | -61.82887 | 37024 ft | 544 kts | 110° |
| 2026-04-21 02:27 | -32.09761 | -61.74506 | 37026 ft | 544 kts | 110° |
| 2026-04-21 02:28 | -32.11897 | -61.67537 | 37019 ft | 543 kts | 110° |
| 2026-04-21 02:28 | -32.14463 | -61.59141 | 37021 ft | 544 kts | 110° |
| 2026-04-21 02:29 | -32.17024 | -61.50743 | 37015 ft | 544 kts | 110° |
| 2026-04-21 02:29 | -32.19578 | -61.42342 | 37008 ft | 544 kts | 110° |
| 2026-04-21 02:30 | -32.22127 | -61.33938 | 37006 ft | 544 kts | 110° |
| 2026-04-21 02:30 | -32.24669 | -61.25529 | 36998 ft | 543 kts | 110° |
| 2026-04-21 02:31 | -32.27204 | -61.17123 | 37007 ft | 543 kts | 110° |
| 2026-04-21 02:31 | -32.29735 | -61.08708 | 36999 ft | 544 kts | 110° |
| 2026-04-21 02:32 | -32.32262 | -61.00281 | 36987 ft | 543 kts | 110° |
| 2026-04-21 02:32 | -32.34757 | -60.91938 | 36990 ft | 543 kts | 110° |
| 2026-04-21 02:33 | -32.37266 | -60.83524 | 36995 ft | 542 kts | 110° |
| 2026-04-21 02:33 | -32.39770 | -60.75106 | 36989 ft | 543 kts | 110° |
| 2026-04-21 02:34 | -32.42269 | -60.66681 | 36992 ft | 542 kts | 110° |
| 2026-04-21 02:34 | -32.44761 | -60.58253 | 36995 ft | 542 kts | 110° |
| 2026-04-21 02:35 | -32.47248 | -60.49823 | 36995 ft | 542 kts | 109° |
| 2026-04-21 02:35 | -32.49727 | -60.41392 | 36986 ft | 542 kts | 109° |
| 2026-04-21 02:36 | -32.52198 | -60.32967 | 37028 ft | 542 kts | 109° |
| 2026-04-21 02:36 | -32.54667 | -60.24524 | 37003 ft | 542 kts | 109° |
| 2026-04-21 02:37 | -32.57131 | -60.16075 | 36972 ft | 542 kts | 109° |
| 2026-04-21 02:37 | -32.59573 | -60.07676 | 36995 ft | 542 kts | 109° |
| 2026-04-21 02:38 | -32.61996 | -59.99321 | 36990 ft | 541 kts | 109° |
| 2026-04-21 02:38 | -32.64437 | -59.90876 | 36996 ft | 541 kts | 109° |
| 2026-04-21 02:39 | -32.66871 | -59.82436 | 36992 ft | 540 kts | 109° |
| 2026-04-21 02:39 | -32.69293 | -59.74010 | 36995 ft | 539 kts | 109° |
| 2026-04-21 02:40 | -32.71711 | -59.65576 | 36999 ft | 539 kts | 109° |
| 2026-04-21 02:40 | -32.74120 | -59.57147 | 36996 ft | 539 kts | 109° |
| 2026-04-21 02:41 | -32.76523 | -59.48718 | 37030 ft | 538 kts | 109° |
| 2026-04-21 02:41 | -32.78920 | -59.40282 | 37013 ft | 539 kts | 109° |
| 2026-04-21 02:42 | -32.81311 | -59.31844 | 37006 ft | 539 kts | 109° |
| 2026-04-21 02:42 | -32.83681 | -59.23454 | 37004 ft | 538 kts | 109° |
| 2026-04-21 02:43 | -32.86058 | -59.15019 | 37009 ft | 538 kts | 109° |
| 2026-04-21 02:43 | -32.88430 | -59.06573 | 37030 ft | 538 kts | 109° |
| 2026-04-21 02:44 | -32.90771 | -58.98217 | 37014 ft | 539 kts | 109° |
| 2026-04-21 02:44 | -32.93133 | -58.89758 | 37016 ft | 538 kts | 109° |
| 2026-04-21 02:45 | -32.95493 | -58.81281 | 37017 ft | 538 kts | 109° |
| 2026-04-21 02:45 | -32.97843 | -58.72816 | 37021 ft | 538 kts | 109° |
| 2026-04-21 02:46 | -33.00289 | -58.64414 | 37019 ft | 538 kts | 116° |
| 2026-04-21 02:46 | -33.04111 | -58.56837 | 37013 ft | 531 kts | 134° |
| 2026-04-21 02:47 | -33.08980 | -58.50250 | 37029 ft | 529 kts | 136° |
| 2026-04-21 02:47 | -33.13878 | -58.43693 | 37021 ft | 529 kts | 136° |
| 2026-04-21 02:48 | -33.18730 | -58.37067 | 37036 ft | 530 kts | 135° |
| 2026-04-21 02:48 | -33.23559 | -58.30398 | 37036 ft | 531 kts | 135° |
| 2026-04-21 02:49 | -33.28390 | -58.23710 | 37034 ft | 531 kts | 135° |
| 2026-04-21 02:49 | -33.33223 | -58.17016 | 37050 ft | 532 kts | 135° |
| 2026-04-21 02:50 | -33.38052 | -58.10318 | 37044 ft | 532 kts | 135° |
| 2026-04-21 02:50 | -33.42884 | -58.03604 | 37039 ft | 532 kts | 135° |
| 2026-04-21 02:51 | -33.47657 | -57.96957 | 37065 ft | 532 kts | 135° |
| 2026-04-21 02:51 | -33.50084 | -57.93576 | 36569 ft | 538 kts | 134° |
| 2026-04-21 02:51 | -33.52516 | -57.90183 | 35971 ft | 536 kts | 134° |
| 2026-04-21 02:51 | -33.54939 | -57.86791 | 35362 ft | 535 kts | 134° |
| 2026-04-21 02:52 | -33.57359 | -57.83397 | 34719 ft | 536 kts | 134° |
| 2026-04-21 02:52 | -33.59749 | -57.80039 | 34022 ft | 537 kts | 134° |
| 2026-04-21 02:52 | -33.62210 | -57.76581 | 33207 ft | 538 kts | 134° |
| 2026-04-21 02:52 | -33.64636 | -57.73169 | 32531 ft | 536 kts | 133° |
| 2026-04-21 02:53 | -33.66997 | -57.69841 | 32174 ft | 526 kts | 133° |
| 2026-04-21 02:53 | -33.69407 | -57.66442 | 31352 ft | 528 kts | 132° |
| 2026-04-21 02:53 | -33.71784 | -57.63088 | 30604 ft | 528 kts | 132° |
| 2026-04-21 02:53 | -33.74163 | -57.59727 | 29750 ft | 526 kts | 131° |
| 2026-04-21 02:54 | -33.76482 | -57.56445 | 28798 ft | 516 kts | 131° |
| 2026-04-21 02:54 | -33.78794 | -57.53172 | 27925 ft | 514 kts | 131° |
| 2026-04-21 02:54 | -33.81094 | -57.49911 | 27355 ft | 507 kts | 131° |
| 2026-04-21 02:54 | -33.83364 | -57.46692 | 26693 ft | 502 kts | 131° |
| 2026-04-21 02:55 | -33.85615 | -57.43497 | 26064 ft | 497 kts | 131° |
| 2026-04-21 02:55 | -33.87840 | -57.40336 | 25450 ft | 492 kts | 131° |
| 2026-04-21 02:55 | -33.90041 | -57.37208 | 24908 ft | 486 kts | 131° |
| 2026-04-21 02:55 | -33.92197 | -57.34149 | 24696 ft | 472 kts | 131° |
| 2026-04-21 02:56 | -33.94307 | -57.31156 | 24227 ft | 466 kts | 131° |
| 2026-04-21 02:56 | -33.98478 | -57.25238 | 22979 ft | 461 kts | 131° |
| 2026-04-21 02:56 | -34.00541 | -57.22306 | 22341 ft | 458 kts | 131° |
| 2026-04-21 02:57 | -34.02593 | -57.19387 | 21727 ft | 454 kts | 131° |
| 2026-04-21 02:57 | -34.04631 | -57.16486 | 21113 ft | 451 kts | 131° |
| 2026-04-21 02:57 | -34.06645 | -57.13615 | 20529 ft | 447 kts | 131° |
| 2026-04-21 02:57 | -34.08647 | -57.10758 | 19931 ft | 443 kts | 131° |
| 2026-04-21 02:58 | -34.10626 | -57.07931 | 19344 ft | 440 kts | 131° |
| 2026-04-21 02:58 | -34.12605 | -57.05104 | 18722 ft | 438 kts | 131° |
| 2026-04-21 02:58 | -34.14561 | -57.02307 | 18100 ft | 435 kts | 130° |
| 2026-04-21 02:58 | -34.16451 | -56.99601 | 17470 ft | 432 kts | 130° |
| 2026-04-21 02:59 | -34.18378 | -56.96842 | 16868 ft | 427 kts | 130° |
| 2026-04-21 02:59 | -34.20282 | -56.94112 | 16279 ft | 423 kts | 130° |
| 2026-04-21 02:59 | -34.22167 | -56.91408 | 15705 ft | 419 kts | 130° |
| 2026-04-21 02:59 | -34.24033 | -56.88729 | 15133 ft | 414 kts | 130° |
| 2026-04-21 03:00 | -34.25878 | -56.86078 | 14590 ft | 410 kts | 130° |
| 2026-04-21 03:00 | -34.27696 | -56.83464 | 14273 ft | 401 kts | 130° |
| 2026-04-21 03:00 | -34.29482 | -56.80895 | 13733 ft | 398 kts | 130° |
| 2026-04-21 03:00 | -34.31253 | -56.78346 | 13165 ft | 394 kts | 130° |
| 2026-04-21 03:01 | -34.33007 | -56.75818 | 12609 ft | 391 kts | 130° |
| 2026-04-21 03:01 | -34.34724 | -56.73342 | 12062 ft | 387 kts | 130° |
| 2026-04-21 03:01 | -34.36449 | -56.70854 | 11517 ft | 384 kts | 130° |
| 2026-04-21 03:01 | -34.38181 | -56.68352 | 11071 ft | 379 kts | 130° |
| 2026-04-21 03:02 | -34.39821 | -56.65982 | 10928 ft | 365 kts | 130° |
| 2026-04-21 03:02 | -34.41424 | -56.63663 | 10755 ft | 354 kts | 130° |
| 2026-04-21 03:02 | -34.42982 | -56.61409 | 10602 ft | 343 kts | 130° |
| 2026-04-21 03:02 | -34.44487 | -56.59228 | 10454 ft | 333 kts | 130° |
| 2026-04-21 03:03 | -34.45950 | -56.57109 | 10315 ft | 323 kts | 130° |
| 2026-04-21 03:03 | -34.47371 | -56.55050 | 10183 ft | 314 kts | 130° |
| 2026-04-21 03:03 | -34.48753 | -56.53046 | 10049 ft | 306 kts | 130° |
| 2026-04-21 03:03 | -34.50097 | -56.51095 | 9786 ft | 302 kts | 130° |
| 2026-04-21 03:04 | -34.51502 | -56.49201 | 9437 ft | 301 kts | 141° |
| 2026-04-21 03:04 | -34.53277 | -56.47883 | 9153 ft | 297 kts | 154° |
| 2026-04-21 03:04 | -34.55109 | -56.46750 | 8864 ft | 295 kts | 154° |
| 2026-04-21 03:04 | -34.56940 | -56.45626 | 8561 ft | 294 kts | 153° |
| 2026-04-21 03:05 | -34.58755 | -56.44505 | 8262 ft | 292 kts | 153° |
| 2026-04-21 03:05 | -34.60560 | -56.43381 | 7959 ft | 291 kts | 152° |
| 2026-04-21 03:05 | -34.62354 | -56.42256 | 7666 ft | 289 kts | 152° |
| 2026-04-21 03:05 | -34.64140 | -56.41132 | 7384 ft | 288 kts | 152° |
| 2026-04-21 03:06 | -34.65915 | -56.40010 | 7084 ft | 287 kts | 151° |
| 2026-04-21 03:06 | -34.67686 | -56.38889 | 6797 ft | 287 kts | 151° |
| 2026-04-21 03:06 | -34.69452 | -56.37769 | 6500 ft | 286 kts | 150° |
| 2026-04-21 03:06 | -34.71213 | -56.36651 | 6194 ft | 285 kts | 150° |
| 2026-04-21 03:07 | -34.72969 | -56.35536 | 5890 ft | 284 kts | 150° |
| 2026-04-21 03:07 | -34.74716 | -56.34425 | 5591 ft | 282 kts | 150° |
| 2026-04-21 03:07 | -34.76431 | -56.33335 | 5285 ft | 275 kts | 150° |
| 2026-04-21 03:07 | -34.78123 | -56.32258 | 5021 ft | 273 kts | 149° |
| 2026-04-21 03:08 | -34.79804 | -56.31188 | 4759 ft | 272 kts | 149° |
| 2026-04-21 03:08 | -34.81479 | -56.30121 | 4492 ft | 270 kts | 149° |
| 2026-04-21 03:08 | -34.83124 | -56.29070 | 4227 ft | 269 kts | 149° |
| 2026-04-21 03:08 | -34.84777 | -56.28016 | 3977 ft | 266 kts | 149° |
| 2026-04-21 03:09 | -34.86382 | -56.26971 | 3842 ft | 258 kts | 145° |
| 2026-04-21 03:09 | -34.87828 | -56.25736 | 3703 ft | 250 kts | 139° |
| 2026-04-21 03:09 | -34.89182 | -56.24490 | 3630 ft | 236 kts | 139° |
| 2026-04-21 03:09 | -34.90445 | -56.23341 | 3524 ft | 217 kts | 139° |
| 2026-04-21 03:10 | -34.91621 | -56.22280 | 3446 ft | 206 kts | 139° |
| 2026-04-21 03:10 | -34.92720 | -56.21204 | 3231 ft | 198 kts | 123° |
| 2026-04-21 03:10 | -34.93102 | -56.19774 | 3157 ft | 171 kts | 76° |
| 2026-04-21 03:10 | -34.92731 | -56.18427 | 2980 ft | 169 kts | 68° |
| 2026-04-21 03:11 | -34.92233 | -56.17136 | 2770 ft | 165 kts | 58° |
| 2026-04-21 03:11 | -34.91835 | -56.16348 | 2631 ft | 158 kts | 57° |
| 2026-04-21 03:11 | -34.91235 | -56.15274 | 2427 ft | 150 kts | 56° |
| 2026-04-21 03:11 | -34.90647 | -56.14275 | 2219 ft | 140 kts | 56° |
| 2026-04-21 03:12 | -34.90096 | -56.13357 | 2085 ft | 129 kts | 56° |
| 2026-04-21 03:12 | -34.89573 | -56.12492 | 1899 ft | 125 kts | 54° |
| 2026-04-21 03:12 | -34.89061 | -56.11650 | 1720 ft | 123 kts | 55° |
| 2026-04-21 03:12 | -34.88548 | -56.10811 | 1582 ft | 126 kts | 56° |
| 2026-04-21 03:13 | -34.88018 | -56.09939 | 1384 ft | 127 kts | 55° |
| 2026-04-21 03:13 | -34.87489 | -56.09069 | 1228 ft | 131 kts | 55° |
| 2026-04-21 03:13 | -34.86937 | -56.08166 | 1061 ft | 134 kts | 56° |
| 2026-04-21 03:13 | -34.86376 | -56.07240 | 855 ft | 141 kts | 55° |
| 2026-04-21 03:14 | -34.85788 | -56.06283 | 674 ft | 142 kts | 54° |
| 2026-04-21 03:14 | -34.85187 | -56.05300 | 432 ft | 147 kts | 55° |
| 2026-04-21 03:14 | -34.84580 | -56.04305 | 238 ft | 146 kts | 54° |
| 2026-04-21 03:14 | -34.83996 | -56.03349 | 85 ft | 133 kts | 55° |
| 2026-04-21 03:15 | -34.83505 | -56.02538 | 92 ft | 99 kts | 54° |
| 2026-04-21 03:15 | -34.83182 | -56.02006 | 83 ft | 59 kts | 53° |
| 2026-04-21 03:15 | -34.82984 | -56.01680 | 97 ft | 39 kts | 53° |
| 2026-04-21 03:15 | -34.82860 | -56.01476 | 104 ft | 19 kts | 53° |
| 2026-04-21 03:16 | -34.82802 | -56.01381 | 108 ft | 13 kts | 53° |
| 2026-04-21 03:16 | -34.82818 | -56.01288 | 110 ft | 12 kts | 140° |
| 2026-04-21 03:16 | -34.82889 | -56.01229 | 110 ft | 12 kts | 162° |
| 2026-04-21 03:16 | -34.82954 | -56.01290 | 108 ft | 13 kts | 233° |
| 2026-04-21 03:17 | -34.83014 | -56.01390 | 103 ft | 16 kts | 233° |
| 2026-04-21 03:17 | -34.83079 | -56.01496 | 100 ft | 16 kts | 233° |
| 2026-04-21 03:17 | -34.83146 | -56.01606 | 94 ft | 11 kts | 233° |
| 2026-04-21 03:17 | -34.83200 | -56.01695 | 89 ft | 15 kts | 233° |
| 2026-04-21 03:18 | -34.83265 | -56.01803 | 84 ft | 15 kts | 234° |
| 2026-04-21 03:18 | -34.83317 | -56.01861 | 81 ft | 11 kts | 189° |
| 2026-04-21 03:18 | -34.83387 | -56.01816 | 75 ft | 13 kts | 143° |
| 2026-04-21 03:18 | -34.83433 | -56.01774 | 73 ft | 8 kts | 143° |
| 2026-04-21 03:19 | -34.83482 | -56.01736 | 68 ft | 8 kts | 146° |
| 2026-04-21 03:19 | -34.83511 | -56.01710 | 69 ft | 4 kts | 143° |
| 2026-04-21 03:19 | -34.83533 | -56.01689 | 70 ft | 4 kts | 143° |
| 2026-04-21 03:19 | -34.83554 | -56.01671 | 73 ft | 3 kts | 143° |
| 2026-04-21 03:20 | -34.83554 | -56.01670 | 73 ft | 0 kts | 143° |